Data for 11/14/2011

Time Sea-Level Adjusted Pressure Absolute Pressure Temperature Relative Humidity Dew Point Precipitation   
(mb) (inHg) (mb) (inHg) (C) (F) (%) (C) (F) (mm) (in)
00:01 1006 29.71 835 24.66 -0.2 31.7 49 -9.6 14.8 -92 -3.622
00:02 1006 29.71 835 24.66 -0.1 31.7 48 -9.8 14.4 -92 -3.622
00:03 1006 29.71 835 24.66 -0.1 31.7 49 -9.6 14.8 -92 -3.622
00:04 1006 29.71 835 24.66 -0.1 31.7 50 -9.5 15 -92 -3.622
00:05 1006 29.71 835 24.66 -0.1 31.8 50 -9.4 15 -92 -3.622
00:06 1006 29.71 835 24.66 -0.1 31.8 49 -9.5 14.9 -92 -3.622
00:07 1006 29.71 835 24.66 -0.1 31.8 48 -9.8 14.3 -92 -3.622
00:08 1006 29.71 835 24.66 -0 32 49 -9.6 14.7 -92 -3.622
00:09 1006 29.71 835 24.66 0 32 50 -9.1 15.6 -92 -3.622
00:10 1006 29.71 835 24.66 -0 32 48 -9.9 14.3 -92 -3.622
00:11 1006 29.71 835 24.66 0 32 47 -10 14 -92 -3.622
00:12 1006 29.71 835 24.66 0.1 32.2 47 -9.9 14.2 -92 -3.622
00:13 1006 29.71 835 24.66 0.1 32.3 49 -9.4 15.2 -92 -3.622
00:14 1006 29.71 835 24.66 0.1 32.1 47 -9.9 14.2 -92 -3.622
00:15 1006 29.71 835 24.66 0.2 32.3 48 -9.6 14.7 -92 -3.622
00:16 1006 29.71 835 24.66 0.2 32.3 48 -9.5 14.9 -92 -3.622
00:17 1006 29.71 835 24.66 0.2 32.3 48 -9.7 14.5 -92 -3.622
00:18 1006 29.71 835 24.66 0.1 32.3 50 -9.1 15.7 -92 -3.622
00:19 1006 29.71 835 24.66 0 32 49 -9.4 15 -92 -3.622
00:20 1006 29.71 835 24.66 0 32 50 -9.3 15.3 -92 -3.622
00:21 1006 29.71 835 24.66 0 32.1 48 -9.6 14.7 -92 -3.622
00:22 1006 29.71 835 24.66 0.1 32.2 49 -9.5 14.9 -92 -3.622
00:23 1006 29.71 835 24.66 0.1 32.1 49 -9.3 15.2 -92 -3.622
00:24 1006 29.71 835 24.66 0 32 49 -9.5 14.9 -92 -3.622
00:25 1006 29.71 835 24.66 -0 32 50 -9.2 15.4 -92 -3.622
00:26 1006 29.71 835 24.66 -0.1 31.9 50 -9.4 15.1 -92 -3.622
00:27 1006 29.71 835 24.66 -0.1 31.8 51 -9 15.8 -92 -3.622
00:28 1006 29.71 835 24.66 -0.1 31.8 51 -9.2 15.4 -92 -3.622
00:29 1006 29.71 835 24.66 -0 31.9 50 -9.3 15.3 -92 -3.622
00:30 1006 29.71 835 24.66 -0 32 50 -9.1 15.6 -92 -3.622
00:31 1006 29.71 835 24.66 -0 31.9 51 -9.1 15.6 -92 -3.622
00:32 1006 29.71 835 24.66 -0 31.9 50 -9.4 15.1 -92 -3.622
00:33 1006 29.71 835 24.66 0 32 50 -9.1 15.6 -92 -3.622
00:34 1006 29.71 835 24.66 -0.1 31.9 50 -9.2 15.5 -92 -3.622
00:35 1006 29.71 835 24.66 -0.2 31.7 52 -8.9 16.1 -92 -3.622
00:36 1006 29.71 835 24.66 -0.2 31.6 50 -9.4 15.1 -92 -3.622
00:37 1006 29.71 835 24.66 -0.2 31.7 52 -8.9 16 -92 -3.622
00:38 1006 29.71 835 24.66 -0.2 31.6 50 -9.4 15.1 -92 -3.622
00:39 1006 29.71 835 24.66 -0.2 31.6 51 -9.2 15.4 -92 -3.622
00:40 1006 29.71 835 24.66 -0.2 31.6 49 -9.7 14.6 -92 -3.622
00:41 1006 29.71 835 24.66 -0.2 31.7 49 -9.6 14.8 -92 -3.622
00:42 1006 29.71 835 24.66 -0.2 31.6 50 -9.4 15.2 -92 -3.622
00:43 1006 29.71 835 24.66 -0.2 31.6 50 -9.4 15.1 -92 -3.622
00:44 1006 29.71 835 24.66 -0.3 31.6 50 -9.6 14.8 -92 -3.622
00:45 1006 29.71 835 24.66 -0.1 31.7 50 -9.5 14.9 -92 -3.622
00:46 1006 29.71 835 24.66 -0.1 31.7 50 -9.4 15.2 -92 -3.622
00:47 1006 29.71 835 24.66 -0.1 31.7 49 -9.5 14.9 -92 -3.622
00:48 1006 29.71 835 24.66 -0.1 31.7 50 -9.3 15.2 -92 -3.622
00:49 1006 29.71 835 24.66 -0.2 31.7 50 -9.4 15.1 -92 -3.622
00:50 1006 29.71 835 24.66 -0.2 31.7 50 -9.3 15.2 -92 -3.622
00:51 1006 29.71 835 24.66 -0.2 31.6 49 -9.6 14.8 -92 -3.622
00:52 1006 29.71 835 24.66 -0.2 31.7 51 -9.2 15.5 -92 -3.622
00:53 1006 29.71 835 24.66 -0.2 31.7 50 -9.5 14.9 -92 -3.622
00:54 1006 29.71 835 24.66 -0.2 31.7 49 -9.6 14.8 -92 -3.622
00:55 1006 29.71 835 24.66 -0.1 31.8 50 -9.3 15.2 -92 -3.622
00:56 1005 29.68 835 24.66 -0.1 31.8 49 -9.5 15 -92 -3.622
00:57 1005 29.68 835 24.66 -0.1 31.8 49 -9.7 14.6 -92 -3.622
00:58 1005 29.68 835 24.66 -0.2 31.7 49 -9.6 14.7 -92 -3.622
00:59 1005 29.68 835 24.66 -0.2 31.6 50 -9.5 15 -92 -3.622
01:00 1005 29.68 835 24.66 -0.2 31.6 49 -9.6 14.8 -92 -3.622
01:01 1005 29.68 835 24.66 -0.2 31.6 49 -9.7 14.6 -92 -3.622
01:02 1005 29.68 835 24.66 -0.2 31.7 50 -9.5 14.8 -92 -3.622
01:03 1005 29.68 835 24.66 -0.3 31.5 50 -9.5 14.9 -92 -3.622
01:04 1005 29.68 835 24.66 -0.2 31.6 50 -9.5 14.9 -92 -3.622
01:05 1005 29.68 835 24.66 -0.2 31.6 50 -9.5 14.9 -92 -3.622
01:06 1005 29.68 834 24.63 -0.3 31.5 49 -9.7 14.5 -92 -3.622
01:07 1005 29.68 835 24.66 -0.3 31.5 49 -9.7 14.5 -92 -3.622
01:08 1005 29.68 835 24.66 -0.2 31.6 50 -9.5 14.9 -92 -3.622
01:09 1005 29.68 835 24.66 -0.2 31.6 49 -9.5 14.8 -92 -3.622
01:10 1005 29.68 835 24.66 -0.2 31.6 50 -9.4 15 -92 -3.622
01:11 1005 29.68 835 24.66 -0.3 31.5 51 -9.2 15.5 -92 -3.622
01:12 1005 29.68 835 24.66 -0.3 31.5 50 -9.5 14.9 -92 -3.622
01:13 1005 29.68 835 24.66 -0.2 31.6 49 -9.7 14.5 -92 -3.622
01:14 1005 29.68 835 24.66 -0.2 31.7 51 -9.2 15.5 -92 -3.622
01:15 1005 29.68 835 24.66 -0.2 31.7 51 -9.1 15.6 -92 -3.622
01:16 1005 29.68 834 24.63 -0.2 31.7 51 -9.1 15.6 -92 -3.622
01:17 1005 29.68 834 24.63 -0.1 31.8 51 -9.1 15.5 -92 -3.622
01:18 1005 29.68 835 24.66 -0.1 31.8 50 -9.3 15.3 -92 -3.622
01:19 1005 29.68 835 24.66 -0.1 31.7 52 -8.9 15.9 -92 -3.622
01:20 1005 29.68 835 24.66 -0.2 31.7 52 -8.9 16 -92 -3.622
01:21 1005 29.68 834 24.63 -0.2 31.7 51 -9.1 15.7 -92 -3.622
01:22 1005 29.68 834 24.63 -0.1 31.9 50 -9.2 15.4 -92 -3.622
01:23 1005 29.68 834 24.63 0 32 51 -9 15.8 -92 -3.622
01:24 1005 29.68 834 24.63 0 32.1 50 -9.3 15.3 -92 -3.622
01:25 1005 29.68 834 24.63 0 32 51 -9 15.9 -92 -3.622
01:26 1005 29.68 834 24.63 0 32 50 -9.3 15.2 -92 -3.622
01:27 1005 29.68 834 24.63 0.1 32.1 51 -8.9 16 -92 -3.622
01:28 1005 29.68 834 24.63 0 32.1 51 -9 15.7 -92 -3.622
01:29 1005 29.68 834 24.63 0.1 32.1 51 -8.8 16.2 -92 -3.622
01:30 1005 29.68 834 24.63 0.1 32.1 49 -9.5 15 -92 -3.622
01:31 1005 29.68 834 24.63 0.1 32.3 50 -9.2 15.5 -92 -3.622
01:32 1005 29.68 834 24.63 0.2 32.3 50 -9.1 15.5 -92 -3.622
01:33 1005 29.68 834 24.63 0.2 32.4 50 -9.1 15.7 -92 -3.622
01:34 1005 29.68 834 24.63 0.3 32.5 49 -9.1 15.6 -92 -3.622
01:35 1005 29.68 834 24.63 0.3 32.5 50 -9.1 15.7 -92 -3.622
01:36 1005 29.68 834 24.63 0.3 32.5 49 -9.1 15.6 -92 -3.622
01:37 1005 29.68 834 24.63 0.3 32.5 51 -8.6 16.5 -92 -3.622
01:38 1005 29.68 834 24.63 0.2 32.3 50 -9 15.8 -92 -3.622
01:39 1005 29.68 834 24.63 0.1 32.2 51 -8.9 16 -92 -3.622
01:40 1005 29.68 834 24.63 0.1 32.2 50 -9.2 15.4 -92 -3.622
01:41 1005 29.68 834 24.63 0.1 32.1 50 -9.1 15.6 -92 -3.622
01:42 1005 29.68 834 24.63 0.1 32.2 50 -9.1 15.7 -92 -3.622
01:43 1005 29.68 834 24.63 0.1 32.2 50 -9.1 15.7 -92 -3.622
01:44 1005 29.68 834 24.63 0 32 51 -9 15.7 -92 -3.622
01:45 1005 29.68 834 24.63 -0 32 51 -8.9 16 -92 -3.622
01:46 1005 29.68 834 24.63 -0 31.9 52 -8.8 16.1 -92 -3.622
01:47 1005 29.68 834 24.63 -0.1 31.8 51 -9 15.8 -92 -3.622
01:48 1005 29.68 834 24.63 -0.1 31.8 51 -9.1 15.5 -92 -3.622
01:49 1005 29.68 834 24.63 -0 32 49 -9.5 15 -92 -3.622
01:50 1005 29.68 834 24.63 0 32.1 49 -9.4 15.1 -92 -3.622
01:51 1005 29.68 834 24.63 0.1 32.2 50 -9 15.7 -92 -3.622
01:52 1005 29.68 834 24.63 0.1 32.3 50 -9.2 15.5 -92 -3.622
01:53 1005 29.68 834 24.63 0.1 32.3 50 -9 15.8 -92 -3.622
01:54 1005 29.68 834 24.63 0 32 50 -9.3 15.3 -92 -3.622
01:55 1005 29.68 834 24.63 0 32.1 51 -8.9 15.9 -92 -3.622
01:56 1005 29.68 834 24.63 -0 32 51 -9 15.7 -92 -3.622
01:57 1005 29.68 834 24.63 -0.1 31.9 52 -8.7 16.3 -92 -3.622
01:58 1005 29.68 834 24.63 -0.1 31.7 51 -9 15.8 -92 -3.622
01:59 1005 29.68 834 24.63 -0.2 31.7 51 -9.2 15.4 -92 -3.622
02:00 1005 29.68 834 24.63 -0.1 31.7 51 -9 15.7 -92 -3.622
02:01 1005 29.68 834 24.63 -0.1 31.8 51 -9 15.8 -92 -3.622
02:02 1005 29.68 834 24.63 -0.2 31.7 52 -9 15.9 -92 -3.622
02:03 1005 29.68 834 24.63 -0.3 31.5 53 -8.8 16.2 -92 -3.622
02:04 1005 29.68 834 24.63 -0.3 31.5 51 -9.1 15.5 -92 -3.622
02:05 1005 29.68 834 24.63 -0.2 31.6 52 -9 15.9 -92 -3.622
02:06 1005 29.68 834 24.63 -0.1 31.8 51 -9 15.9 -92 -3.622
02:07 1005 29.68 834 24.63 -0.2 31.7 53 -8.7 16.3 -92 -3.622
02:08 1005 29.68 834 24.63 -0.2 31.6 52 -9 15.8 -92 -3.622
02:09 1005 29.68 834 24.63 -0.2 31.6 51 -9 15.7 -92 -3.622
02:10 1005 29.68 834 24.63 -0.2 31.7 51 -9.2 15.5 -92 -3.622
02:11 1005 29.68 834 24.63 -0.1 31.7 50 -9.4 15.2 -92 -3.622
02:12 1005 29.68 834 24.63 -0.1 31.9 50 -9.2 15.4 -92 -3.622
02:13 1005 29.68 834 24.63 -0.1 31.8 50 -9.3 15.2 -92 -3.622
02:14 1005 29.68 834 24.63 -0.1 31.8 50 -9.3 15.3 -92 -3.622
02:15 1005 29.68 834 24.63 -0.1 31.8 52 -8.9 16 -92 -3.622
02:16 1005 29.68 834 24.63 -0.1 31.9 52 -8.9 16 -92 -3.622
02:17 1005 29.68 834 24.63 -0.1 31.8 53 -8.7 16.4 -92 -3.622
02:18 1005 29.68 834 24.63 -0.2 31.6 52 -8.9 16.1 -92 -3.622
02:19 1005 29.68 834 24.63 -0.3 31.5 52 -9 15.8 -92 -3.622
02:20 1005 29.68 834 24.63 -0.2 31.6 54 -8.5 16.8 -92 -3.622
02:21 1005 29.68 834 24.63 -0.2 31.6 52 -8.9 16.1 -92 -3.622
02:22 1005 29.68 834 24.63 -0.2 31.7 53 -8.6 16.6 -92 -3.622
02:23 1005 29.68 834 24.63 -0.1 31.7 50 -9.4 15.1 -92 -3.622
02:24 1005 29.68 834 24.63 0 32 50 -9.1 15.6 -92 -3.622
02:25 1005 29.68 834 24.63 0.1 32.1 52 -8.6 16.4 -92 -3.622
02:26 1005 29.68 834 24.63 0 32.1 51 -9 15.8 -92 -3.622
02:27 1005 29.68 834 24.63 0 32 50 -9.1 15.6 -92 -3.622
02:28 1005 29.68 834 24.63 0 32 50 -9.2 15.5 -92 -3.622
02:29 1005 29.68 834 24.63 0.1 32.2 50 -9 15.8 -92 -3.622
02:30 1005 29.68 834 24.63 0.1 32.3 52 -8.7 16.4 -92 -3.622
02:31 1005 29.68 834 24.63 0.1 32.2 52 -8.7 16.3 -92 -3.622
02:32 1005 29.68 834 24.63 0 32.1 51 -9 15.7 -92 -3.622
02:33 1005 29.68 834 24.63 0 32 52 -8.7 16.3 -92 -3.622
02:34 1005 29.68 834 24.63 -0.1 31.8 52 -8.7 16.3 -92 -3.622
02:35 1005 29.68 834 24.63 -0.1 31.8 51 -9.2 15.5 -92 -3.622
02:36 1005 29.68 834 24.63 -0 31.9 51 -8.9 15.9 -92 -3.622
02:37 1005 29.68 834 24.63 -0.1 31.9 51 -9 15.8 -92 -3.622
02:38 1005 29.68 834 24.63 -0.1 31.8 51 -9 15.8 -92 -3.622
02:39 1005 29.68 834 24.63 -0.1 31.8 51 -9.1 15.7 -92 -3.622
02:40 1005 29.68 834 24.63 -0.1 31.8 52 -8.9 16 -92 -3.622
02:41 1005 29.68 834 24.63 -0.1 31.8 52 -8.8 16.1 -92 -3.622
02:42 1005 29.68 834 24.63 -0.2 31.7 51 -9.1 15.7 -92 -3.622
02:43 1005 29.68 834 24.63 -0.1 31.8 49 -9.5 14.9 -92 -3.622
02:44 1005 29.68 834 24.63 -0 32 50 -9.1 15.6 -92 -3.622
02:45 1005 29.68 834 24.63 0 32.1 50 -9.2 15.5 -92 -3.622
02:46 1005 29.68 834 24.63 0 32 52 -8.6 16.4 -91.9 -3.618
02:47 1005 29.68 834 24.63 -0.1 31.8 51 -9 15.8 -92 -3.622
02:48 1005 29.68 834 24.63 -0 31.9 50 -9.3 15.3 -92 -3.622
02:49 1005 29.68 834 24.63 0.1 32.1 49 -9.5 15 -92 -3.622
02:50 1005 29.68 834 24.63 0.1 32.3 50 -9 15.8 -92 -3.622
02:51 1005 29.68 834 24.63 0.1 32.3 49 -9.3 15.3 -92 -3.622
02:52 1005 29.68 834 24.63 0.1 32.2 49 -9.4 15.1 -92 -3.622
02:53 1005 29.68 834 24.63 0.2 32.3 50 -9.2 15.5 -92 -3.622
02:54 1005 29.68 834 24.63 0.1 32.2 51 -9 15.8 -92 -3.622
02:55 1005 29.68 834 24.63 0 32.1 51 -9 15.9 -92 -3.622
02:56 1005 29.68 834 24.63 -0 32 51 -8.9 16 -92 -3.622
02:57 1005 29.68 834 24.63 -0.1 31.9 51 -9 15.8 -92 -3.622
02:58 1005 29.68 834 24.63 -0.1 31.8 51 -9 15.8 -92 -3.622
02:59 1005 29.68 835 24.66 -0.1 31.8 50 -9.4 15.1 -92 -3.622
03:00 1005 29.68 834 24.63 -0.1 31.9 52 -8.9 16.1 -92 -3.622
03:01 1005 29.68 834 24.63 -0.1 31.8 52 -8.8 16.1 -91.9 -3.618
03:02 1005 29.68 834 24.63 -0 31.9 51 -9 15.8 -92 -3.622
03:03 1005 29.68 834 24.63 0 32 51 -9 15.9 -92 -3.622
03:04 1005 29.68 834 24.63 0 32 51 -9 15.8 -92 -3.622
03:05 1005 29.68 834 24.63 -0 32 51 -9 15.7 -92 -3.622
03:06 1005 29.68 834 24.63 -0 32 51 -9 15.9 -92 -3.622
03:07 1005 29.68 834 24.63 0 32 51 -9 15.9 -92 -3.622
03:08 1005 29.68 834 24.63 -0 32 52 -8.7 16.3 -92 -3.622
03:09 1005 29.68 834 24.63 -0 32 50 -9.1 15.6 -92 -3.622
03:10 1005 29.68 834 24.63 0 32.1 51 -8.9 15.9 -92 -3.622
03:11 1005 29.68 834 24.63 0 32.1 51 -8.9 15.9 -91.9 -3.618
03:12 1005 29.68 834 24.63 -0 32 52 -8.6 16.4 -91.9 -3.618
03:13 1005 29.68 834 24.63 -0 32 53 -8.6 16.5 -91.9 -3.618
03:14 1005 29.68 834 24.63 -0 32 52 -8.7 16.3 -92 -3.622
03:15 1005 29.68 834 24.63 -0.1 31.9 52 -8.9 16 -92 -3.622
03:16 1005 29.68 834 24.63 0 32 51 -8.9 16 -92 -3.622
03:17 1005 29.68 834 24.63 0.1 32.1 52 -8.8 16.2 -92 -3.622
03:18 1005 29.68 834 24.63 0.1 32.1 51 -8.8 16.2 -92 -3.622
03:19 1005 29.68 834 24.63 0.1 32.2 52 -8.7 16.4 -92 -3.622
03:20 1005 29.68 834 24.63 0.1 32.3 50 -9.1 15.6 -92 -3.622
03:21 1005 29.68 834 24.63 0.3 32.5 50 -8.9 16 -92 -3.622
03:22 1005 29.68 834 24.63 0.2 32.4 51 -8.8 16.1 -92 -3.622
03:23 1005 29.68 834 24.63 0.3 32.5 48 -9.6 14.7 -92 -3.622
03:24 1005 29.68 834 24.63 0.4 32.7 50 -9 15.9 -92 -3.622
03:25 1005 29.68 834 24.63 0.5 32.8 48 -9.4 15.1 -92 -3.622
03:26 1005 29.68 834 24.63 0.5 32.9 51 -8.4 16.8 -92 -3.622
03:27 1005 29.68 834 24.63 0.5 32.8 49 -9.1 15.7 -92 -3.622
03:28 1005 29.68 834 24.63 0.5 32.8 49 -9.2 15.5 -91.9 -3.618
03:29 1005 29.68 834 24.63 0.4 32.8 48 -9.4 15.1 -92 -3.622
03:30 1005 29.68 834 24.63 0.4 32.8 49 -9.2 15.5 -92 -3.622
03:31 1005 29.68 834 24.63 0.4 32.7 50 -8.9 15.9 -91.9 -3.618
03:32 1005 29.68 834 24.63 0.4 32.7 49 -9.2 15.4 -91.9 -3.618
03:33 1005 29.68 834 24.63 0.4 32.7 49 -9.2 15.4 -91.9 -3.618
03:34 1005 29.68 834 24.63 0.4 32.7 49 -9.1 15.6 -91.9 -3.618
03:35 1005 29.68 834 24.63 0.4 32.8 49 -9.2 15.5 -91.9 -3.618
03:36 1005 29.68 834 24.63 0.4 32.8 48 -9.4 15.1 -91.9 -3.618
03:37 1005 29.68 834 24.63 0.5 32.8 48 -9.4 15.2 -91.9 -3.618
03:38 1005 29.68 834 24.63 0.5 32.9 49 -9.1 15.6 -91.9 -3.618
03:39 1005 29.68 834 24.63 0.5 32.9 48 -9.3 15.3 -92 -3.622
03:40 1005 29.68 834 24.63 0.5 32.9 49 -9 15.8 -92 -3.622
03:41 1005 29.68 834 24.63 0.4 32.8 48 -9.3 15.3 -91.9 -3.618
03:42 1005 29.68 834 24.63 0.5 32.9 49 -9.2 15.5 -92 -3.622
03:43 1005 29.68 834 24.63 0.5 32.9 50 -8.7 16.4 -91.9 -3.618
03:44 1005 29.68 834 24.63 0.4 32.8 48 -9.3 15.3 -91.9 -3.618
03:45 1005 29.68 834 24.63 0.5 32.9 50 -8.9 16 -92 -3.622
03:46 1005 29.68 834 24.63 0.5 32.8 48 -9.2 15.5 -92 -3.622
03:47 1005 29.68 834 24.63 0.5 32.8 50 -8.8 16.1 -92 -3.622
03:48 1005 29.68 834 24.63 0.4 32.8 51 -8.7 16.4 -91.9 -3.618
03:49 1005 29.68 834 24.63 0.4 32.7 48 -9.2 15.4 -91.9 -3.618
03:50 1005 29.68 834 24.63 0.4 32.7 48 -9.4 15.1 -91.9 -3.618
03:51 1005 29.68 834 24.63 0.6 33 49 -9.1 15.7 -92 -3.622
03:52 1005 29.68 834 24.63 0.6 33.2 48 -9.1 15.6 -92 -3.622
03:53 1005 29.68 834 24.63 0.6 33.1 48 -9.1 15.6 -92 -3.622
03:54 1005 29.68 834 24.63 0.6 33.1 50 -8.8 16.2 -91.9 -3.618
03:55 1005 29.68 834 24.63 0.6 33 48 -9.2 15.4 -91.9 -3.618
03:56 1005 29.68 834 24.63 0.5 33 48 -9.3 15.3 -91.9 -3.618
03:57 1005 29.68 834 24.63 0.5 33 49 -9 15.9 -91.9 -3.618
03:58 1005 29.68 834 24.63 0.5 32.9 49 -9.1 15.6 -91.9 -3.618
03:59 1005 29.68 834 24.63 0.5 32.9 49 -9 15.8 -91.9 -3.618
04:00 1005 29.68 834 24.63 0.5 32.8 49 -9 15.7 -91.9 -3.618
04:01 1005 29.68 834 24.63 0.4 32.6 49 -9.2 15.5 -91.9 -3.618
04:02 1005 29.68 834 24.63 0.3 32.6 50 -8.9 16.1 -91.9 -3.618
04:03 1005 29.68 834 24.63 0.3 32.6 50 -8.9 16 -91.9 -3.618
04:04 1005 29.68 834 24.63 0.2 32.4 51 -8.7 16.3 -91.9 -3.618
04:05 1005 29.68 834 24.63 0.2 32.4 49 -9.3 15.3 -91.9 -3.618
04:06 1005 29.68 834 24.63 0.3 32.5 50 -9.1 15.7 -91.9 -3.618
04:07 1005 29.68 834 24.63 0.3 32.5 49 -9.2 15.4 -91.9 -3.618
04:08 1005 29.68 834 24.63 0.3 32.6 49 -9.2 15.5 -91.9 -3.618
04:09 1005 29.68 834 24.63 0.3 32.5 50 -9 15.8 -91.9 -3.618
04:10 1005 29.68 834 24.63 0.3 32.5 50 -8.8 16.1 -91.9 -3.618
04:11 1005 29.68 834 24.63 0.3 32.5 50 -9 15.8 -91.9 -3.618
04:12 1005 29.68 834 24.63 0.3 32.5 48 -9.5 14.9 -91.9 -3.618
04:13 1005 29.68 834 24.63 0.4 32.6 48 -9.4 15.1 -91.9 -3.618
04:14 1005 29.68 834 24.63 0.4 32.8 48 -9.3 15.2 -92 -3.622
04:15 1005 29.68 834 24.63 0.6 33.1 47 -9.6 14.8 -92 -3.622
04:16 1005 29.68 834 24.63 0.7 33.3 48 -9.2 15.4 -92 -3.622
04:17 1005 29.68 834 24.63 0.7 33.3 48 -9.1 15.5 -92 -3.622
04:18 1005 29.68 834 24.63 0.7 33.3 46 -9.5 14.9 -92 -3.622
04:19 1005 29.68 834 24.63 0.7 33.3 48 -9.1 15.6 -92 -3.622
04:20 1005 29.68 834 24.63 0.7 33.2 49 -8.8 16.2 -92 -3.622
04:21 1005 29.68 834 24.63 0.6 33.1 48 -9.1 15.5 -91.9 -3.618
04:22 1005 29.68 834 24.63 0.6 33 48 -9.2 15.5 -91.9 -3.618
04:23 1005 29.68 834 24.63 0.6 33 48 -9.2 15.5 -91.9 -3.618
04:24 1005 29.68 834 24.63 0.5 32.9 50 -8.8 16.1 -91.9 -3.618
04:25 1005 29.68 834 24.63 0.4 32.8 50 -8.9 15.9 -91.9 -3.618
04:26 1005 29.68 834 24.63 0.4 32.7 50 -8.8 16.2 -91.9 -3.618
04:27 1005 29.68 834 24.63 0.4 32.7 49 -9 15.8 -91.9 -3.618
04:28 1005 29.68 834 24.63 0.4 32.8 48 -9.2 15.4 -91.9 -3.618
04:29 1005 29.68 834 24.63 0.4 32.8 50 -8.7 16.3 -91.9 -3.618
04:30 1005 29.68 834 24.63 0.4 32.7 50 -8.9 15.9 -91.9 -3.618
04:31 1005 29.68 834 24.63 0.4 32.8 47 -9.7 14.5 -91.9 -3.618
04:32 1005 29.68 834 24.63 0.6 33 50 -8.7 16.4 -91.9 -3.618
04:33 1005 29.68 834 24.63 0.4 32.8 50 -8.9 16 -91.9 -3.618
04:34 1005 29.68 834 24.63 0.4 32.6 49 -9.1 15.6 -91.9 -3.618
04:35 1005 29.68 834 24.63 0.3 32.6 48 -9.4 15.1 -91.9 -3.618
04:36 1005 29.68 834 24.63 0.4 32.7 50 -9 15.8 -91.9 -3.618
04:37 1005 29.68 834 24.63 0.3 32.6 49 -9.2 15.5 -91.9 -3.618
04:38 1005 29.68 834 24.63 0.3 32.5 51 -8.7 16.4 -91.9 -3.618
04:39 1005 29.68 834 24.63 0.2 32.4 51 -8.8 16.2 -91.9 -3.618
04:40 1005 29.68 834 24.63 0.2 32.4 48 -9.5 14.9 -91.9 -3.618
04:41 1005 29.68 834 24.63 0.2 32.4 48 -9.5 15 -91.9 -3.618
04:42 1005 29.68 834 24.63 0.4 32.6 50 -8.9 16 -91.9 -3.618
04:43 1005 29.68 834 24.63 0.3 32.6 49 -9.1 15.6 -91.9 -3.618
04:44 1005 29.68 834 24.63 0.4 32.6 47 -9.6 14.8 -91.9 -3.618
04:45 1005 29.68 834 24.63 0.5 32.8 49 -9.1 15.6 -91.9 -3.618
04:46 1005 29.68 834 24.63 0.5 32.8 49 -9.1 15.6 -91.9 -3.618
04:47 1005 29.68 834 24.63 0.4 32.8 48 -9.2 15.4 -91.9 -3.618
04:48 1005 29.68 834 24.63 0.4 32.8 48 -9.2 15.4 -91.9 -3.618
04:49 1005 29.68 834 24.63 0.4 32.7 49 -9.2 15.4 -91.9 -3.618
04:50 1005 29.68 834 24.63 0.4 32.8 50 -8.7 16.3 -91.9 -3.618
04:51 1005 29.68 834 24.63 0.3 32.6 49 -9.1 15.6 -91.9 -3.618
04:52 1005 29.68 834 24.63 0.3 32.6 48 -9.5 14.8 -91.9 -3.618
04:53 1005 29.68 834 24.63 0.4 32.7 48 -9.3 15.3 -91.9 -3.618
04:54 1005 29.68 834 24.63 0.5 32.8 50 -8.8 16.1 -91.9 -3.618
04:55 1005 29.68 834 24.63 0.4 32.7 49 -9.1 15.7 -91.9 -3.618
04:56 1005 29.68 834 24.63 0.3 32.6 50 -8.8 16.1 -91.9 -3.618
04:57 1005 29.68 834 24.63 0.3 32.6 51 -8.6 16.5 -91.9 -3.618
04:58 1005 29.68 834 24.63 0.3 32.5 50 -9 15.8 -91.9 -3.618
04:59 1005 29.68 834 24.63 0.3 32.5 50 -9 15.8 -91.9 -3.618
05:00 1005 29.68 834 24.63 0.4 32.6 49 -9.1 15.7 -91.9 -3.618
05:01 1005 29.68 834 24.63 0.4 32.8 50 -8.8 16.2 -91.9 -3.618
05:02 1005 29.68 834 24.63 0.5 32.9 49 -9.1 15.6 -91.9 -3.618
05:03 1005 29.68 834 24.63 0.6 33 50 -8.8 16.2 -91.9 -3.618
05:04 1005 29.68 834 24.63 0.5 32.9 49 -8.9 15.9 -91.9 -3.618
05:05 1005 29.68 834 24.63 0.5 32.9 50 -8.7 16.4 -91.9 -3.618
05:06 1005 29.68 834 24.63 0.5 32.9 50 -8.8 16.1 -91.9 -3.618
05:07 1005 29.68 834 24.63 0.5 32.9 49 -9.1 15.6 -91.9 -3.618
05:08 1005 29.68 834 24.63 0.6 33.1 50 -8.8 16.2 -91.9 -3.618
05:09 1005 29.68 834 24.63 0.6 33.1 50 -8.6 16.6 -91.9 -3.618
05:10 1005 29.68 834 24.63 0.5 33 49 -8.9 16 -91.9 -3.618
05:11 1005 29.68 834 24.63 0.5 33 48 -9.2 15.4 -91.9 -3.618
05:12 1005 29.68 834 24.63 0.7 33.2 49 -8.8 16.1 -91.9 -3.618
05:13 1005 29.68 834 24.63 0.7 33.2 50 -8.6 16.6 -91.9 -3.618
05:14 1005 29.68 834 24.63 0.7 33.2 48 -9.2 15.5 -91.9 -3.618
05:15 1005 29.68 834 24.63 0.7 33.3 48 -9.2 15.4 -91.9 -3.618
05:16 1005 29.68 834 24.63 0.8 33.5 49 -8.8 16.1 -91.9 -3.618
05:17 1005 29.68 834 24.63 0.8 33.4 48 -9 15.9 -91.9 -3.618
05:18 1005 29.68 834 24.63 0.8 33.4 48 -9 15.9 -91.9 -3.618
05:19 1005 29.68 834 24.63 0.9 33.6 47 -9.3 15.3 -91.9 -3.618
05:20 1005 29.68 834 24.63 0.9 33.7 48 -8.9 15.9 -91.9 -3.618
05:21 1005 29.68 834 24.63 1 33.7 47 -9.1 15.6 -91.9 -3.618
05:22 1005 29.68 834 24.63 1 33.8 47 -9.1 15.7 -91.9 -3.618
05:23 1005 29.68 834 24.63 1 33.7 47 -9 15.8 -91.9 -3.618
05:24 1005 29.68 834 24.63 0.9 33.7 49 -8.7 16.4 -91.9 -3.618
05:25 1005 29.68 834 24.63 0.9 33.7 47 -9.2 15.5 -91.9 -3.618
05:26 1005 29.68 834 24.63 0.9 33.6 48 -8.8 16.1 -91.9 -3.618
05:27 1005 29.68 834 24.63 0.9 33.6 48 -8.8 16.1 -91.9 -3.618
05:28 1005 29.68 834 24.63 0.9 33.7 48 -9 15.9 -91.9 -3.618
05:29 1005 29.68 834 24.63 1 33.7 50 -8.4 16.9 -91.9 -3.618
05:30 1005 29.68 834 24.63 0.8 33.5 50 -8.5 16.6 -91.9 -3.618
05:31 1005 29.68 834 24.63 0.9 33.5 48 -9.1 15.7 -91.9 -3.618
05:32 1005 29.68 834 24.63 0.9 33.5 49 -8.7 16.3 -91.9 -3.618
05:33 1005 29.68 834 24.63 0.9 33.6 47 -9.2 15.5 -91.9 -3.618
05:34 1005 29.68 834 24.63 1 33.8 47 -9.2 15.4 -91.9 -3.618
05:35 1005 29.68 834 24.63 1 33.9 46 -9.2 15.4 -91.9 -3.618
05:36 1005 29.68 834 24.63 1.1 33.9 45 -9.5 14.9 -91.9 -3.618
05:37 1005 29.68 834 24.63 1.1 33.9 47 -9.1 15.6 -91.9 -3.618
05:38 1005 29.68 834 24.63 1 33.8 48 -8.9 15.9 -91.9 -3.618
05:39 1005 29.68 834 24.63 0.9 33.6 47 -9.1 15.6 -91.9 -3.618
05:40 1005 29.68 834 24.63 1 33.8 48 -8.8 16.1 -91.9 -3.618
05:41 1005 29.68 834 24.63 1 33.8 48 -8.7 16.3 -91.9 -3.618
05:42 1005 29.68 834 24.63 0.9 33.7 48 -8.9 16 -91.9 -3.618
05:43 1005 29.68 834 24.63 0.9 33.6 48 -8.8 16.1 -91.9 -3.618
05:44 1005 29.68 834 24.63 0.9 33.6 47 -9.3 15.3 -91.9 -3.618
05:45 1005 29.68 834 24.63 0.9 33.6 47 -9.1 15.6 -91.9 -3.618
05:46 1005 29.68 834 24.63 1 33.7 46 -9.5 14.9 -91.9 -3.618
05:47 1005 29.68 834 24.63 1 33.9 47 -9.1 15.7 -91.9 -3.618
05:48 1005 29.68 834 24.63 1 33.8 47 -9.2 15.4 -91.9 -3.618
05:49 1005 29.68 834 24.63 1 33.8 47 -9.1 15.6 -91.9 -3.618
05:50 1005 29.68 834 24.63 1 33.9 46 -9.3 15.3 -91.9 -3.618
05:51 1005 29.68 834 24.63 1 33.9 48 -8.9 15.9 -91.9 -3.618
05:52 1005 29.68 834 24.63 1 33.8 46 -9.4 15.1 -91.9 -3.618
05:53 1005 29.68 834 24.63 1 33.9 49 -8.5 16.6 -91.9 -3.618
05:54 1005 29.68 834 24.63 1 33.8 48 -8.9 15.9 -91.9 -3.618
05:55 1005 29.68 834 24.63 1 33.8 49 -8.5 16.7 -91.9 -3.618
05:56 1005 29.68 834 24.63 0.9 33.6 48 -8.8 16.1 -91.9 -3.618
05:57 1005 29.68 834 24.63 0.9 33.6 47 -9.3 15.3 -91.9 -3.618
05:58 1005 29.68 834 24.63 0.9 33.7 48 -9 15.8 -91.9 -3.618
05:59 1005 29.68 834 24.63 0.9 33.7 48 -8.9 16 -91.9 -3.618
06:00 1005 29.68 834 24.63 0.9 33.7 49 -8.6 16.5 -91.9 -3.618
06:01 1005 29.68 834 24.63 0.9 33.6 50 -8.4 16.9 -91.9 -3.618
06:02 1005 29.68 834 24.63 0.9 33.5 49 -8.8 16.2 -91.9 -3.618
06:03 1005 29.68 834 24.63 0.9 33.6 48 -8.9 16 -91.9 -3.618
06:04 1005 29.68 834 24.63 0.9 33.7 48 -8.9 16 -91.9 -3.618
06:05 1005 29.68 834 24.63 1 33.7 48 -9 15.8 -91.9 -3.618
06:06 1005 29.68 834 24.63 1 33.7 48 -8.9 16 -91.9 -3.618
06:07 1005 29.68 834 24.63 1 33.8 49 -8.5 16.7 -91.9 -3.618
06:08 1005 29.68 834 24.63 1 33.8 49 -8.7 16.4 -91.9 -3.618
06:09 1005 29.68 834 24.63 1 33.7 49 -8.7 16.4 -91.9 -3.618
06:10 1005 29.68 834 24.63 0.9 33.6 48 -9 15.7 -91.9 -3.618
06:11 1005 29.68 834 24.63 0.9 33.7 47 -9 15.7 -91.9 -3.618
06:12 1005 29.68 834 24.63 0.9 33.7 49 -8.7 16.3 -91.9 -3.618
06:13 1005 29.68 834 24.63 0.9 33.7 48 -8.9 16 -91.9 -3.618
06:14 1005 29.68 834 24.63 0.9 33.7 49 -8.6 16.5 -91.9 -3.618
06:15 1005 29.68 834 24.63 0.9 33.5 49 -8.7 16.4 -91.9 -3.618
06:16 1005 29.68 834 24.63 0.8 33.5 49 -8.8 16.1 -91.9 -3.618
06:17 1005 29.68 834 24.63 0.9 33.5 48 -8.9 15.9 -91.9 -3.618
06:18 1005 29.68 834 24.63 0.9 33.5 50 -8.4 16.8 -91.9 -3.618
06:19 1005 29.68 834 24.63 0.9 33.6 46 -9.4 15.1 -91.9 -3.618
06:20 1005 29.68 834 24.63 0.9 33.6 47 -9.2 15.4 -91.9 -3.618
06:21 1005 29.68 834 24.63 1 33.8 45 -9.5 14.8 -91.9 -3.618
06:22 1005 29.68 834 24.63 1 33.8 47 -9.1 15.6 -91.9 -3.618
06:23 1005 29.68 834 24.63 1 33.9 45 -9.5 14.9 -91.9 -3.618
06:24 1005 29.68 834 24.63 1.1 33.9 48 -8.7 16.3 -91.9 -3.618
06:25 1005 29.68 834 24.63 1 33.8 48 -8.9 16 -91.9 -3.618
06:26 1005 29.68 834 24.63 1 33.8 47 -9.2 15.5 -91.9 -3.618
06:27 1005 29.68 834 24.63 1 33.7 50 -8.3 17 -91.9 -3.618
06:28 1005 29.68 834 24.63 0.9 33.6 47 -9.2 15.4 -91.9 -3.618
06:29 1005 29.68 834 24.63 0.9 33.7 48 -8.9 16.1 -91.9 -3.618
06:30 1005 29.68 834 24.63 0.9 33.6 48 -8.9 16 -91.9 -3.618
06:31 1005 29.68 834 24.63 0.8 33.5 49 -8.7 16.4 -91.9 -3.618
06:32 1005 29.68 834 24.63 0.8 33.5 47 -9.3 15.2 -91.9 -3.618
06:33 1005 29.68 834 24.63 0.9 33.6 51 -8.2 17.2 -91.9 -3.618
06:34 1005 29.68 834 24.63 0.8 33.4 50 -8.4 16.9 -91.9 -3.618
06:35 1005 29.68 834 24.63 0.8 33.4 50 -8.6 16.6 -91.9 -3.618
06:36 1005 29.68 834 24.63 0.7 33.3 49 -8.8 16.2 -91.9 -3.618
06:37 1005 29.68 834 24.63 0.8 33.4 50 -8.5 16.7 -91.9 -3.618
06:38 1005 29.68 834 24.63 0.7 33.3 48 -9 15.7 -91.9 -3.618
06:39 1005 29.68 834 24.63 0.8 33.4 49 -8.7 16.3 -91.9 -3.618
06:40 1005 29.68 834 24.63 0.8 33.4 46 -9.6 14.8 -91.9 -3.618
06:41 1005 29.68 834 24.63 0.9 33.6 47 -9.3 15.2 -91.9 -3.618
06:42 1005 29.68 834 24.63 0.9 33.6 50 -8.5 16.7 -91.9 -3.618
06:43 1005 29.68 834 24.63 0.9 33.5 47 -9.2 15.4 -91.9 -3.618
06:44 1005 29.68 834 24.63 0.9 33.6 46 -9.4 15.1 -91.9 -3.618
06:45 1005 29.68 834 24.63 0.9 33.6 48 -8.9 15.9 -91.9 -3.618
06:46 1005 29.68 834 24.63 0.8 33.5 47 -9.2 15.4 -91.9 -3.618
06:47 1005 29.68 834 24.63 0.8 33.5 47 -9.2 15.5 -91.9 -3.618
06:48 1005 29.68 834 24.63 0.8 33.5 47 -9.2 15.4 -91.9 -3.618
06:49 1005 29.68 834 24.63 0.9 33.6 47 -9.1 15.6 -91.9 -3.618
06:50 1005 29.68 834 24.63 0.9 33.6 47 -9.3 15.3 -91.9 -3.618
06:51 1005 29.68 834 24.63 0.9 33.6 46 -9.3 15.2 -91.9 -3.618
06:52 1005 29.68 834 24.63 0.9 33.6 48 -9 15.7 -91.9 -3.618
06:53 1005 29.68 834 24.63 0.9 33.6 47 -9.2 15.4 -91.9 -3.618
06:54 1005 29.68 834 24.63 0.9 33.6 48 -8.9 16 -91.9 -3.618
06:55 1005 29.68 834 24.63 0.9 33.6 47 -9.1 15.7 -91.9 -3.618
06:56 1005 29.68 834 24.63 0.8 33.5 47 -9.3 15.3 -91.9 -3.618
06:57 1004 29.65 834 24.63 0.8 33.5 46 -9.7 14.6 -91.9 -3.618
06:58 1005 29.68 834 24.63 0.9 33.6 46 -9.5 14.9 -91.9 -3.618
06:59 1005 29.68 834 24.63 0.9 33.6 48 -9 15.7 -91.9 -3.618
07:00 1004 29.65 834 24.63 0.8 33.5 48 -8.9 16.1 -91.9 -3.618
07:01 1004 29.65 834 24.63 0.8 33.5 46 -9.4 15.1 -91.9 -3.618
07:02 1004 29.65 834 24.63 0.9 33.6 47 -9.2 15.5 -91.9 -3.618
07:03 1004 29.65 834 24.63 0.9 33.6 46 -9.6 14.8 -91.9 -3.618
07:04 1004 29.65 834 24.63 0.9 33.6 46 -9.5 14.9 -91.9 -3.618
07:05 1004 29.65 834 24.63 0.9 33.6 48 -8.9 15.9 -91.9 -3.618
07:06 1004 29.65 834 24.63 0.8 33.4 46 -9.7 14.6 -91.9 -3.618
07:07 1004 29.65 834 24.63 0.9 33.7 46 -9.3 15.2 -91.9 -3.618
07:08 1004 29.65 834 24.63 1 33.7 46 -9.5 14.8 -91.9 -3.618
07:09 1004 29.65 834 24.63 0.9 33.6 46 -9.5 14.9 -91.9 -3.618
07:10 1005 29.68 834 24.63 0.8 33.5 48 -9 15.8 -91.9 -3.618
07:11 1004 29.65 834 24.63 0.7 33.3 47 -9.4 15.1 -91.9 -3.618
07:12 1004 29.65 834 24.63 0.7 33.3 47 -9.2 15.4 -91.9 -3.618
07:13 1004 29.65 834 24.63 0.8 33.5 47 -9.3 15.2 -91.9 -3.618
07:14 1004 29.65 834 24.63 0.9 33.6 46 -9.4 15.1 -91.9 -3.618
07:15 1004 29.65 834 24.63 0.9 33.6 46 -9.6 14.8 -91.9 -3.618
07:16 1004 29.65 834 24.63 0.9 33.6 46 -9.5 14.8 -91.9 -3.618
07:17 1004 29.65 834 24.63 0.9 33.6 44 -10 14 -91.9 -3.618
07:18 1004 29.65 834 24.63 1 33.9 44 -9.9 14.1 -91.9 -3.618
07:19 1004 29.65 834 24.63 1.1 34 46 -9.3 15.2 -91.9 -3.618
07:20 1004 29.65 834 24.63 1.1 33.9 47 -9 15.7 -92 -3.622
07:21 1004 29.65 834 24.63 0.9 33.7 47 -9.1 15.7 -92 -3.622
07:22 1004 29.65 834 24.63 0.9 33.7 48 -8.9 16 -92 -3.622
07:23 1004 29.65 834 24.63 0.9 33.6 45 -9.7 14.5 -92 -3.622
07:24 1004 29.65 834 24.63 0.8 33.5 47 -9.2 15.5 -92 -3.622
07:25 1004 29.65 834 24.63 0.9 33.6 47 -9.2 15.4 -92 -3.622
07:26 1004 29.65 834 24.63 0.9 33.6 48 -8.9 15.9 -92 -3.622
07:27 1004 29.65 834 24.63 0.9 33.6 46 -9.5 14.9 -92 -3.622
07:28 1004 29.65 834 24.63 0.9 33.7 45 -9.9 14.3 -92 -3.622
07:29 1005 29.68 834 24.63 1 33.7 46 -9.4 15.1 -92 -3.622
07:30 1004 29.65 834 24.63 1 33.8 48 -8.8 16.1 -92 -3.622
07:31 1005 29.68 834 24.63 1 33.8 46 -9.5 15 -92 -3.622
07:32 1004 29.65 834 24.63 1 33.8 45 -9.6 14.7 -92 -3.622
07:33 1005 29.68 834 24.63 1 33.8 47 -9.1 15.6 -92 -3.622
07:34 1004 29.65 834 24.63 1 33.7 45 -9.7 14.6 -92 -3.622
07:35 1004 29.65 834 24.63 1 33.7 48 -8.8 16.1 -92 -3.622
07:36 1005 29.68 834 24.63 0.8 33.5 46 -9.6 14.7 -92 -3.622
07:37 1004 29.65 834 24.63 0.9 33.6 46 -9.5 14.9 -92 -3.622
07:38 1005 29.68 834 24.63 1 33.7 47 -9.1 15.7 -92 -3.622
07:39 1005 29.68 834 24.63 0.9 33.6 49 -8.6 16.5 -92.1 -3.626
07:40 1004 29.65 834 24.63 0.8 33.4 47 -9.3 15.3 -92.1 -3.626
07:41 1004 29.65 834 24.63 0.9 33.5 47 -9.3 15.3 -92.1 -3.626
07:42 1004 29.65 834 24.63 0.9 33.6 47 -9.2 15.4 -92.1 -3.626
07:43 1004 29.65 834 24.63 0.9 33.6 47 -9.2 15.4 -92.1 -3.626
07:44 1005 29.68 834 24.63 0.9 33.7 47 -9.3 15.3 -92.1 -3.626
07:45 1005 29.68 834 24.63 1 33.7 47 -9.2 15.4 -92.1 -3.626
07:46 1004 29.65 834 24.63 1 33.8 46 -9.4 15.1 -92 -3.622
07:47 1004 29.65 834 24.63 1 33.8 48 -8.9 15.9 -92 -3.622
07:48 1005 29.68 834 24.63 0.9 33.7 49 -8.7 16.4 -92 -3.622
07:49 1005 29.68 834 24.63 0.8 33.5 47 -9.4 15.1 -92 -3.622
07:50 1005 29.68 834 24.63 0.9 33.6 47 -9.2 15.5 -92 -3.622
07:51 1005 29.68 834 24.63 0.8 33.5 49 -8.8 16.1 -92 -3.622
07:52 1005 29.68 834 24.63 0.9 33.6 47 -9.3 15.2 -92 -3.622
07:53 1004 29.65 834 24.63 1 33.7 47 -9.1 15.6 -92 -3.622
07:54 1004 29.65 834 24.63 1 33.7 47 -9.1 15.5 -92 -3.622
07:55 1005 29.68 834 24.63 0.9 33.7 49 -8.6 16.5 -92 -3.622
07:56 1005 29.68 834 24.63 0.9 33.6 48 -8.8 16.1 -92 -3.622
07:57 1005 29.68 834 24.63 0.9 33.6 48 -8.9 16 -92 -3.622
07:58 1005 29.68 834 24.63 0.9 33.5 47 -9.4 15.2 -92 -3.622
07:59 1004 29.65 834 24.63 0.9 33.6 47 -9.1 15.6 -92 -3.622
08:00 1005 29.68 834 24.63 0.9 33.6 46 -9.4 15.1 -91.9 -3.618
08:01 1004 29.65 834 24.63 0.9 33.7 46 -9.6 14.8 -91.9 -3.618
08:02 1004 29.65 834 24.63 1 33.8 45 -9.6 14.7 -91.9 -3.618
08:03 1004 29.65 834 24.63 1.1 33.9 45 -9.5 15 -91.9 -3.618
08:04 1004 29.65 834 24.63 1 33.8 46 -9.2 15.4 -91.9 -3.618
08:05 1004 29.65 834 24.63 1 33.8 44 -9.9 14.2 -91.9 -3.618
08:06 1004 29.65 834 24.63 1 33.8 46 -9.3 15.2 -91.9 -3.618
08:07 1004 29.65 834 24.63 1 33.7 48 -8.8 16.1 -91.9 -3.618
08:08 1004 29.65 834 24.63 0.9 33.6 46 -9.4 15.1 -91.9 -3.618
08:09 1004 29.65 834 24.63 0.9 33.5 47 -9.2 15.5 -91.9 -3.618
08:10 1004 29.65 834 24.63 0.8 33.5 46 -9.7 14.6 -91.9 -3.618
08:11 1004 29.65 834 24.63 0.9 33.6 47 -9.1 15.7 -91.9 -3.618
08:12 1004 29.65 834 24.63 0.8 33.5 47 -9.3 15.2 -91.9 -3.618
08:13 1005 29.68 834 24.63 0.8 33.4 49 -8.6 16.5 -91.9 -3.618
08:14 1004 29.65 834 24.63 0.7 33.3 46 -9.6 14.7 -91.9 -3.618
08:15 1005 29.68 834 24.63 0.8 33.4 48 -9.1 15.6 -91.9 -3.618
08:16 1004 29.65 834 24.63 0.8 33.4 45 -9.7 14.5 -91.9 -3.618
08:17 1004 29.65 834 24.63 0.9 33.6 45 -9.9 14.2 -91.9 -3.618
08:18 1004 29.65 834 24.63 1 33.8 45 -9.6 14.6 -91.9 -3.618
08:19 1004 29.65 834 24.63 0.9 33.6 46 -9.5 15 -91.9 -3.618
08:20 1004 29.65 834 24.63 0.9 33.6 44 -10 14 -91.9 -3.618
08:21 1004 29.65 834 24.63 0.9 33.6 47 -9.3 15.3 -91.9 -3.618
08:22 1004 29.65 834 24.63 0.9 33.6 46 -9.4 15.1 -91.9 -3.618
08:23 1004 29.65 834 24.63 0.8 33.5 46 -9.5 14.9 -91.9 -3.618
08:24 1004 29.65 834 24.63 0.8 33.5 45 -9.8 14.4 -91.9 -3.618
08:25 1004 29.65 834 24.63 0.9 33.5 46 -9.6 14.8 -91.9 -3.618
08:26 1004 29.65 834 24.63 0.9 33.6 45 -9.9 14.3 -91.9 -3.618
08:27 1004 29.65 834 24.63 0.9 33.6 45 -9.7 14.5 -91.9 -3.618
08:28 1005 29.68 834 24.63 0.9 33.6 45 -9.9 14.2 -91.9 -3.618
08:29 1004 29.65 834 24.63 0.9 33.7 45 -9.7 14.5 -91.9 -3.618
08:30 1004 29.65 834 24.63 1 33.8 46 -9.3 15.2 -92 -3.622
08:31 1004 29.65 834 24.63 1 33.8 45 -9.6 14.7 -92 -3.622
08:32 1005 29.68 834 24.63 0.9 33.7 45 -9.8 14.3 -91.9 -3.618
08:33 1004 29.65 834 24.63 0.9 33.7 46 -9.3 15.2 -91.9 -3.618
08:34 1004 29.65 834 24.63 0.9 33.6 47 -9.1 15.5 -91.9 -3.618
08:35 1005 29.68 834 24.63 0.8 33.5 46 -9.5 14.9 -91.9 -3.618
08:36 1004 29.65 834 24.63 0.8 33.5 46 -9.5 14.8 -91.9 -3.618
08:37 1004 29.65 834 24.63 0.8 33.5 46 -9.6 14.7 -91.9 -3.618
08:38 1004 29.65 834 24.63 0.9 33.6 44 -10 14.1 -91.9 -3.618
08:39 1004 29.65 834 24.63 0.9 33.7 46 -9.5 14.8 -91.9 -3.618
08:40 1004 29.65 834 24.63 0.9 33.7 46 -9.5 14.9 -91.9 -3.618
08:41 1004 29.65 834 24.63 0.9 33.6 46 -9.5 15 -91.9 -3.618
08:42 1004 29.65 834 24.63 0.9 33.5 46 -9.4 15.1 -91.9 -3.618
08:43 1004 29.65 834 24.63 0.8 33.4 47 -9.2 15.4 -91.9 -3.618
08:44 1004 29.65 834 24.63 0.7 33.3 45 -9.8 14.4 -91.9 -3.618
08:45 1004 29.65 834 24.63 0.8 33.5 46 -9.5 14.9 -91.9 -3.618
08:46 1004 29.65 834 24.63 0.8 33.4 47 -9.4 15.1 -91.9 -3.618
08:47 1004 29.65 834 24.63 0.8 33.4 44 -10.3 13.5 -91.9 -3.618
08:48 1004 29.65 833 24.6 0.9 33.6 45 -9.7 14.5 -91.9 -3.618
08:49 1004 29.65 833 24.6 0.9 33.7 45 -9.7 14.5 -91.9 -3.618
08:50 1004 29.65 833 24.6 1 33.8 44 -10 14 -91.9 -3.618
08:51 1004 29.65 833 24.6 1 33.8 44 -9.9 14.1 -91.9 -3.618
08:52 1004 29.65 833 24.6 1 33.9 46 -9.2 15.4 -91.9 -3.618
08:53 1004 29.65 833 24.6 1 33.8 46 -9.5 14.9 -91.9 -3.618
08:54 1004 29.65 833 24.6 1 33.7 45 -9.6 14.8 -91.9 -3.618
08:55 1004 29.65 833 24.6 1 33.7 44 -10.1 13.9 -91.9 -3.618
08:56 1004 29.65 833 24.6 1 33.8 47 -9.2 15.5 -91.9 -3.618
08:57 1004 29.65 833 24.6 0.9 33.7 46 -9.5 14.9 -91.9 -3.618
08:58 1004 29.65 833 24.6 0.9 33.6 47 -9.2 15.4 -91.9 -3.618
08:59 1004 29.65 833 24.6 0.9 33.5 46 -9.4 15.1 -91.9 -3.618
09:00 1004 29.65 833 24.6 0.8 33.4 46 -9.6 14.7 -91.8 -3.614
09:01 1004 29.65 833 24.6 0.8 33.5 44 -10 14.1 -91.9 -3.618
09:02 1004 29.65 833 24.6 0.9 33.7 46 -9.5 15 -91.9 -3.618
09:03 1004 29.65 833 24.6 1 33.7 48 -8.8 16.1 -91.9 -3.618
09:04 1004 29.65 833 24.6 0.9 33.6 46 -9.5 14.9 -91.9 -3.618
09:05 1004 29.65 833 24.6 0.9 33.7 47 -9 15.7 -91.9 -3.618
09:06 1004 29.65 833 24.6 0.9 33.6 47 -9.2 15.4 -91.9 -3.618
09:07 1004 29.65 833 24.6 0.9 33.6 46 -9.6 14.8 -91.8 -3.614
09:08 1004 29.65 833 24.6 0.9 33.6 48 -9 15.8 -91.9 -3.618
09:09 1004 29.65 833 24.6 0.8 33.5 46 -9.5 14.8 -91.9 -3.618
09:10 1004 29.65 833 24.6 0.8 33.5 47 -9.4 15.2 -91.9 -3.618
09:11 1004 29.65 833 24.6 0.8 33.5 47 -9.4 15.2 -91.9 -3.618
09:12 1004 29.65 833 24.6 0.8 33.5 46 -9.5 14.9 -91.9 -3.618
09:13 1004 29.65 833 24.6 0.9 33.6 46 -9.5 14.8 -91.8 -3.614
09:14 1004 29.65 833 24.6 1 33.8 45 -9.6 14.7 -91.8 -3.614
09:15 1004 29.65 833 24.6 1.1 34 48 -8.8 16.1 -91.8 -3.614
09:16 1004 29.65 833 24.6 1.1 34 45 -9.6 14.8 -91.8 -3.614
09:17 1004 29.65 833 24.6 1.1 33.9 45 -9.6 14.7 -91.9 -3.618
09:18 1004 29.65 833 24.6 1 33.9 44 -9.8 14.3 -91.8 -3.614
09:19 1004 29.65 833 24.6 1 33.9 46 -9.3 15.3 -91.9 -3.618
09:20 1004 29.65 833 24.6 1.1 33.9 44 -9.8 14.4 -91.9 -3.618
09:21 1004 29.65 833 24.6 1.1 34 45 -9.7 14.6 -91.8 -3.614
09:22 1004 29.65 833 24.6 1.1 34 46 -9.2 15.5 -91.8 -3.614
09:23 1004 29.65 833 24.6 1.1 34.1 45 -9.6 14.7 -91.8 -3.614
09:24 1004 29.65 833 24.6 1.1 34 45 -9.5 14.9 -91.8 -3.614
09:25 1004 29.65 833 24.6 1 33.9 45 -9.5 14.8 -91.8 -3.614
09:26 1004 29.65 833 24.6 1.1 34 45 -9.6 14.7 -91.8 -3.614
09:27 1004 29.65 833 24.6 1.1 34 46 -9.1 15.5 -91.8 -3.614
09:28 1004 29.65 833 24.6 1.1 34.1 45 -9.6 14.7 -91.8 -3.614
09:29 1004 29.65 833 24.6 1.2 34.2 45 -9.4 15.1 -91.8 -3.614
09:30 1004 29.65 833 24.6 1.2 34.2 45 -9.5 14.8 -91.8 -3.614
09:31 1004 29.65 833 24.6 1.3 34.3 47 -8.7 16.3 -91.8 -3.614
09:32 1004 29.65 833 24.6 1.3 34.3 46 -9.2 15.4 -91.8 -3.614
09:33 1004 29.65 833 24.6 1.3 34.3 45 -9.5 14.9 -91.7 -3.61
09:34 1004 29.65 833 24.6 1.3 34.4 45 -9.4 15.1 -91.7 -3.61
09:35 1004 29.65 833 24.6 1.4 34.5 43 -9.9 14.1 -91.8 -3.614
09:36 1004 29.65 833 24.6 1.4 34.6 43 -9.8 14.3 -91.8 -3.614
09:37 1004 29.65 833 24.6 1.5 34.6 43 -9.7 14.5 -91.8 -3.614
09:38 1004 29.65 833 24.6 1.5 34.7 45 -9.2 15.5 -91.8 -3.614
09:39 1004 29.65 833 24.6 1.5 34.8 43 -9.6 14.7 -91.8 -3.614
09:40 1004 29.65 833 24.6 1.6 34.8 43 -9.7 14.5 -91.8 -3.614
09:41 1004 29.65 833 24.6 1.5 34.7 46 -9 15.8 -91.8 -3.614
09:42 1004 29.65 833 24.6 1.3 34.4 45 -9.4 15.1 -91.8 -3.614
09:43 1004 29.65 833 24.6 1.3 34.4 45 -9.4 15 -91.8 -3.614
09:44 1004 29.65 833 24.6 1.4 34.5 45 -9.4 15.1 -91.7 -3.61
09:45 1004 29.65 833 24.6 1.4 34.5 45 -9.3 15.3 -91.7 -3.61
09:46 1004 29.65 833 24.6 1.5 34.7 41 -10.3 13.5 -91.7 -3.61
09:47 1004 29.65 833 24.6 1.6 34.9 41 -10.3 13.4 -91.7 -3.61
09:48 1004 29.65 833 24.6 1.6 34.9 43 -9.5 14.9 -91.8 -3.614
09:49 1004 29.65 833 24.6 1.6 34.9 44 -9.4 15 -91.8 -3.614
09:50 1004 29.65 833 24.6 1.7 35 45 -8.9 16 -91.8 -3.614
09:51 1004 29.65 833 24.6 1.8 35.3 43 -9.4 15.1 -91.7 -3.61
09:52 1004 29.65 833 24.6 1.9 35.5 43 -9.5 14.9 -91.7 -3.61
09:53 1004 29.65 833 24.6 2 35.6 42 -9.7 14.6 -91.7 -3.61
09:54 1004 29.65 833 24.6 1.9 35.4 41 -9.9 14.2 -91.7 -3.61
09:55 1004 29.65 833 24.6 1.9 35.3 43 -9.3 15.2 -91.8 -3.614
09:56 1004 29.65 833 24.6 1.8 35.2 44 -9.1 15.7 -91.7 -3.61
09:57 1004 29.65 833 24.6 1.7 35.1 44 -9.2 15.4 -91.7 -3.61
09:58 1004 29.65 834 24.63 1.7 35 44 -9.3 15.2 -91.7 -3.61
09:59 1004 29.65 833 24.6 1.7 35 44 -9.4 15.2 -91.7 -3.61
10:00 1004 29.65 833 24.6 1.7 35.1 44 -9.4 15.1 -91.7 -3.61
10:01 1004 29.65 833 24.6 1.7 35.1 46 -8.8 16.1 -91.7 -3.61
10:02 1004 29.65 833 24.6 1.7 35 43 -9.8 14.4 -91.7 -3.61
10:03 1004 29.65 833 24.6 1.7 35 44 -9.3 15.2 -91.7 -3.61
10:04 1004 29.65 833 24.6 1.7 35.1 44 -9.3 15.3 -91.7 -3.61
10:05 1004 29.65 833 24.6 1.7 35.1 43 -9.5 15 -91.6 -3.606
10:06 1004 29.65 833 24.6 1.8 35.3 40 -10.5 13.1 -91.6 -3.606
10:07 1004 29.65 833 24.6 1.9 35.4 45 -8.9 15.9 -91.6 -3.606
10:08 1004 29.65 833 24.6 1.8 35.3 44 -9.2 15.4 -91.6 -3.606
10:09 1004 29.65 833 24.6 1.9 35.3 45 -8.9 16 -91.6 -3.606
10:10 1004 29.65 833 24.6 1.9 35.4 44 -9.2 15.5 -91.6 -3.606
10:11 1004 29.65 833 24.6 1.9 35.3 44 -9.2 15.5 -91.6 -3.606
10:12 1004 29.65 833 24.6 1.9 35.3 44 -9.2 15.4 -91.6 -3.606
10:13 1004 29.65 833 24.6 1.8 35.3 45 -8.8 16.2 -91.7 -3.61
10:14 1004 29.65 833 24.6 1.8 35.2 43 -9.5 15 -91.7 -3.61
10:15 1004 29.65 833 24.6 1.8 35.3 46 -8.7 16.3 -91.7 -3.61
10:16 1004 29.65 833 24.6 1.7 35.1 45 -8.9 15.9 -91.7 -3.61
10:17 1004 29.65 833 24.6 1.8 35.2 42 -9.8 14.4 -91.6 -3.606
10:18 1004 29.65 833 24.6 1.8 35.3 45 -8.8 16.1 -91.7 -3.61
10:19 1004 29.65 834 24.63 1.8 35.2 45 -8.9 16 -91.6 -3.606
10:20 1004 29.65 833 24.6 1.8 35.2 46 -8.7 16.4 -91.6 -3.606
10:21 1004 29.65 834 24.63 1.7 35.1 44 -9.2 15.4 -91.6 -3.606
10:22 1004 29.65 833 24.6 1.8 35.2 41 -10.1 13.8 -91.6 -3.606
10:23 1004 29.65 833 24.6 1.9 35.4 42 -9.7 14.5 -91.7 -3.61
10:24 1004 29.65 833 24.6 2 35.6 41 -9.8 14.3 -91.7 -3.61
10:25 1004 29.65 834 24.63 1.9 35.5 42 -9.8 14.4 -91.8 -3.614
10:26 1004 29.65 834 24.63 1.8 35.3 43 -9.5 14.9 -91.8 -3.614
10:27 1004 29.65 834 24.63 1.8 35.3 43 -9.6 14.8 -91.8 -3.614
10:28 1004 29.65 834 24.63 1.9 35.4 43 -9.4 15.1 -91.8 -3.614
10:29 1004 29.65 833 24.6 1.9 35.5 42 -9.7 14.6 -91.8 -3.614
10:30 1004 29.65 834 24.63 1.9 35.4 43 -9.3 15.2 -91.8 -3.614
10:31 1004 29.65 834 24.63 1.8 35.3 45 -9 15.8 -91.8 -3.614
10:32 1004 29.65 834 24.63 1.7 35.1 43 -9.7 14.6 -91.8 -3.614
10:33 1004 29.65 834 24.63 1.8 35.2 43 -9.5 14.9 -91.8 -3.614
10:34 1004 29.65 834 24.63 1.8 35.3 43 -9.4 15.1 -91.7 -3.61
10:35 1004 29.65 834 24.63 1.9 35.3 43 -9.6 14.8 -91.7 -3.61
10:36 1004 29.65 834 24.63 1.8 35.3 44 -9.2 15.5 -91.6 -3.606
10:37 1004 29.65 834 24.63 1.8 35.2 43 -9.4 15.1 -91.6 -3.606
10:38 1004 29.65 834 24.63 1.9 35.4 42 -9.7 14.5 -91.6 -3.606
10:39 1004 29.65 834 24.63 1.9 35.5 44 -9.1 15.6 -91.6 -3.606
10:40 1004 29.65 833 24.6 1.9 35.4 44 -9.2 15.4 -91.6 -3.606
10:41 1004 29.65 834 24.63 1.9 35.4 44 -9 15.7 -91.6 -3.606
10:42 1004 29.65 833 24.6 1.9 35.4 43 -9.5 14.9 -91.6 -3.606
10:43 1004 29.65 834 24.63 1.9 35.4 43 -9.5 14.8 -91.6 -3.606
10:44 1004 29.65 833 24.6 1.9 35.5 37 -11.2 11.8 -91.6 -3.606
10:45 1004 29.65 833 24.6 2.1 35.7 41 -10 14.1 -91.6 -3.606
10:46 1004 29.65 833 24.6 2.1 35.7 41 -9.8 14.4 -91.6 -3.606
10:47 1004 29.65 833 24.6 2.1 35.7 43 -9.2 15.5 -91.7 -3.61
10:48 1004 29.65 833 24.6 2 35.6 45 -8.8 16.1 -91.7 -3.61
10:49 1004 29.65 833 24.6 2 35.6 40 -10.3 13.4 -91.7 -3.61
10:50 1004 29.65 833 24.6 2 35.6 41 -9.8 14.3 -91.7 -3.61
10:51 1004 29.65 833 24.6 2.1 35.7 40 -10.3 13.4 -91.7 -3.61
10:52 1004 29.65 833 24.6 2.1 35.7 44 -9.1 15.7 -91.6 -3.606
10:53 1004 29.65 833 24.6 2 35.7 43 -9.2 15.5 -91.6 -3.606
10:54 1004 29.65 833 24.6 2 35.6 41 -9.8 14.4 -91.6 -3.606
10:55 1004 29.65 833 24.6 2 35.7 39 -10.6 13 -91.6 -3.606
10:56 1004 29.65 833 24.6 2.1 35.8 41 -9.9 14.1 -91.6 -3.606
10:57 1004 29.65 833 24.6 2.1 35.8 41 -9.8 14.4 -91.6 -3.606
10:58 1004 29.65 833 24.6 2.1 35.7 42 -9.5 14.8 -91.6 -3.606
10:59 1004 29.65 833 24.6 2.1 35.7 39 -10.6 12.9 -91.6 -3.606
11:00 1004 29.65 833 24.6 2.1 35.8 41 -9.8 14.3 -91.6 -3.606
11:01 1004 29.65 833 24.6 2.1 35.8 43 -9.2 15.4 -91.6 -3.606
11:02 1004 29.65 833 24.6 2.1 35.8 40 -10.1 13.8 -91.6 -3.606
11:03 1004 29.65 833 24.6 2.1 35.7 40 -10.1 13.8 -91.6 -3.606
11:04 1004 29.65 833 24.6 2.1 35.8 39 -10.3 13.4 -91.6 -3.606
11:05 1004 29.65 833 24.6 2.1 35.8 40 -10.2 13.6 -91.6 -3.606
11:06 1004 29.65 833 24.6 2.1 35.7 45 -8.6 16.5 -91.6 -3.606
11:07 1004 29.65 833 24.6 2 35.6 43 -9.3 15.3 -91.6 -3.606
11:08 1004 29.65 833 24.6 2 35.6 43 -9.3 15.2 -91.6 -3.606
11:09 1004 29.65 833 24.6 2 35.6 46 -8.5 16.6 -91.6 -3.606
11:10 1004 29.65 833 24.6 2 35.5 44 -9.1 15.6 -91.5 -3.602
11:11 1004 29.65 833 24.6 2 35.6 42 -9.6 14.7 -91.5 -3.602
11:12 1004 29.65 833 24.6 2.1 35.7 45 -8.7 16.3 -91.5 -3.602
11:13 1004 29.65 833 24.6 2.1 35.8 45 -8.5 16.7 -91.5 -3.602
11:14 1004 29.65 833 24.6 2.2 35.9 44 -8.9 16.1 -91.5 -3.602
11:15 1004 29.65 833 24.6 2.3 36.1 42 -9.5 15 -91.5 -3.602
11:16 1004 29.65 833 24.6 2.3 36.1 42 -9.4 15.1 -91.5 -3.602
11:17 1004 29.65 833 24.6 2.3 36.1 42 -9.3 15.3 -91.5 -3.602
11:18 1004 29.65 833 24.6 2.2 36 45 -8.5 16.8 -91.5 -3.602
11:19 1004 29.65 833 24.6 2.1 35.8 41 -9.7 14.5 -91.5 -3.602
11:20 1004 29.65 833 24.6 2.1 35.8 42 -9.4 15.1 -91.5 -3.602
11:21 1004 29.65 833 24.6 2.1 35.8 42 -9.7 14.6 -91.5 -3.602
11:22 1004 29.65 833 24.6 2.1 35.8 45 -8.7 16.3 -91.5 -3.602
11:23 1004 29.65 833 24.6 2.1 35.8 39 -10.3 13.4 -91.4 -3.598
11:24 1004 29.65 833 24.6 2.2 35.9 41 -9.8 14.4 -91.5 -3.602
11:25 1004 29.65 833 24.6 2.2 36 40 -10 13.9 -91.4 -3.598
11:26 1004 29.65 833 24.6 2.2 36 41 -9.8 14.4 -91.5 -3.602
11:27 1004 29.65 833 24.6 2.2 35.9 40 -10.1 13.8 -91.5 -3.602
11:28 1004 29.65 833 24.6 2.2 36 39 -10.3 13.4 -91.5 -3.602
11:29 1004 29.65 833 24.6 2.3 36.1 39 -10.4 13.3 -91.5 -3.602
11:30 1004 29.65 833 24.6 2.3 36.1 39 -10.3 13.5 -91.6 -3.606
11:31 1004 29.65 833 24.6 2.4 36.3 40 -10 13.9 -91.6 -3.606
11:32 1004 29.65 833 24.6 2.3 36.2 39 -10.2 13.6 -91.6 -3.606
11:33 1004 29.65 833 24.6 2.3 36.2 42 -9.2 15.4 -91.6 -3.606
11:34 1004 29.65 833 24.6 2.3 36.1 40 -10 14 -91.5 -3.602
11:35 1004 29.65 833 24.6 2.3 36.1 40 -9.8 14.3 -91.5 -3.602
11:36 1004 29.65 833 24.6 2.2 36 41 -9.6 14.6 -91.5 -3.602
11:37 1004 29.65 833 24.6 2.3 36.1 38 -10.5 13.1 -91.5 -3.602
11:38 1004 29.65 833 24.6 2.3 36.1 41 -9.7 14.5 -91.5 -3.602
11:39 1004 29.65 833 24.6 2.2 36 42 -9.3 15.3 -91.5 -3.602
11:40 1004 29.65 833 24.6 2.2 36 42 -9.3 15.3 -91.5 -3.602
11:41 1004 29.65 833 24.6 2.2 35.9 43 -9.2 15.5 -91.6 -3.606
11:42 1004 29.65 833 24.6 2.2 36 41 -9.7 14.6 -91.6 -3.606
11:43 1004 29.65 833 24.6 2.2 36 43 -9.2 15.4 -91.5 -3.602
11:44 1004 29.65 833 24.6 2.2 36 41 -9.8 14.4 -91.5 -3.602
11:45 1004 29.65 833 24.6 2.2 36 41 -9.7 14.5 -91.5 -3.602
11:46 1004 29.65 833 24.6 2.2 35.9 40 -9.9 14.1 -91.5 -3.602
11:47 1004 29.65 833 24.6 2.2 36 40 -10.1 13.8 -91.5 -3.602
11:48 1004 29.65 833 24.6 2.3 36.1 39 -10.2 13.6 -91.5 -3.602
11:49 1004 29.65 833 24.6 2.3 36.1 41 -9.6 14.7 -91.5 -3.602
11:50 1004 29.65 833 24.6 2.3 36.1 38 -10.8 12.5 -91.5 -3.602
11:51 1004 29.65 833 24.6 2.3 36.1 40 -10 14 -91.5 -3.602
11:52 1004 29.65 833 24.6 2.3 36.2 40 -10.1 13.9 -91.5 -3.602
11:53 1004 29.65 833 24.6 2.3 36.1 42 -9.4 15.1 -91.4 -3.598
11:54 1004 29.65 833 24.6 2.3 36.1 40 -9.9 14.3 -91.4 -3.598
11:55 1004 29.65 833 24.6 2.3 36.1 37 -10.8 12.5 -91.4 -3.598
11:56 1004 29.65 833 24.6 2.3 36.2 38 -10.5 13.2 -91.4 -3.598
11:57 1004 29.65 833 24.6 2.3 36.2 41 -9.7 14.6 -91.4 -3.598
11:58 1004 29.65 833 24.6 2.3 36.2 41 -9.7 14.5 -91.4 -3.598
11:59 1004 29.65 833 24.6 2.4 36.2 37 -10.9 12.4 -91.4 -3.598
12:00 1004 29.65 833 24.6 2.4 36.3 34 -11.9 10.7 -91.5 -3.602
12:01 1004 29.65 833 24.6 2.4 36.4 35 -11.5 11.3 -91.5 -3.602
12:02 1004 29.65 833 24.6 2.5 36.5 37 -10.9 12.4 -91.5 -3.602
12:03 1004 29.65 833 24.6 2.5 36.5 38 -10.5 13.1 -91.6 -3.606
12:04 1004 29.65 833 24.6 2.5 36.6 36 -11 12.2 -91.6 -3.606
12:05 1004 29.65 833 24.6 2.5 36.6 39 -10.1 13.9 -91.5 -3.602
12:06 1004 29.65 833 24.6 2.5 36.5 38 -10.5 13.1 -91.5 -3.602
12:07 1004 29.65 833 24.6 2.5 36.4 41 -9.5 14.9 -91.4 -3.598
12:08 1004 29.65 833 24.6 2.4 36.4 42 -9.3 15.2 -91.4 -3.598
12:09 1004 29.65 833 24.6 2.4 36.3 43 -8.9 16 -91.4 -3.598
12:10 1004 29.65 833 24.6 2.3 36.2 43 -8.9 15.9 -91.4 -3.598
12:11 1004 29.65 833 24.6 2.4 36.2 38 -10.4 13.2 -91.4 -3.598
12:12 1004 29.65 833 24.6 2.5 36.4 41 -9.6 14.7 -91.4 -3.598
12:13 1004 29.65 833 24.6 2.5 36.4 39 -10.2 13.6 -91.4 -3.598
12:14 1004 29.65 833 24.6 2.4 36.4 39 -10.3 13.5 -91.4 -3.598
12:15 1004 29.65 833 24.6 2.5 36.4 42 -9.2 15.4 -91.4 -3.598
12:16 1004 29.65 833 24.6 2.5 36.5 37 -10.6 12.9 -91.4 -3.598
12:17 1004 29.65 833 24.6 2.5 36.5 39 -10.1 13.9 -91.4 -3.598
12:18 1004 29.65 833 24.6 2.5 36.5 36 -11.2 11.8 -91.4 -3.598
12:19 1004 29.65 833 24.6 2.6 36.6 38 -10.4 13.3 -91.4 -3.598
12:20 1004 29.65 833 24.6 2.6 36.6 34 -11.9 10.6 -91.4 -3.598
12:21 1004 29.65 833 24.6 2.5 36.6 37 -10.7 12.7 -91.4 -3.598
12:22 1004 29.65 833 24.6 2.5 36.6 37 -10.9 12.4 -91.4 -3.598
12:23 1004 29.65 833 24.6 2.5 36.6 38 -10.3 13.4 -91.4 -3.598
12:24 1004 29.65 833 24.6 2.5 36.5 38 -10.3 13.4 -91.4 -3.598
12:25 1004 29.65 833 24.6 2.5 36.4 40 -9.9 14.1 -91.4 -3.598
12:26 1004 29.65 833 24.6 2.5 36.5 39 -10.2 13.7 -91.4 -3.598
12:27 1004 29.65 833 24.6 2.4 36.4 40 -9.7 14.6 -91.4 -3.598
12:28 1004 29.65 833 24.6 2.4 36.4 42 -9.2 15.4 -91.4 -3.598
12:29 1004 29.65 833 24.6 2.4 36.3 42 -9.4 15.1 -91.4 -3.598
12:30 1004 29.65 833 24.6 2.4 36.4 40 -9.8 14.4 -91.4 -3.598
12:31 1004 29.65 833 24.6 2.5 36.5 40 -9.7 14.5 -91.4 -3.598
12:32 1004 29.65 833 24.6 2.5 36.5 40 -9.7 14.6 -91.4 -3.598
12:33 1004 29.65 833 24.6 2.5 36.5 42 -9.2 15.5 -91.4 -3.598
12:34 1004 29.65 833 24.6 2.5 36.5 41 -9.6 14.7 -91.3 -3.594
12:35 1004 29.65 833 24.6 2.5 36.5 38 -10.4 13.2 -91.3 -3.594
12:36 1004 29.65 833 24.6 2.6 36.6 40 -9.7 14.6 -91.4 -3.598
12:37 1004 29.65 833 24.6 2.5 36.6 38 -10.2 13.6 -91.4 -3.598
12:38 1004 29.65 833 24.6 2.6 36.6 38 -10.5 13.2 -91.4 -3.598
12:39 1004 29.65 833 24.6 2.5 36.6 38 -10.4 13.2 -91.4 -3.598
12:40 1004 29.65 833 24.6 2.6 36.7 35 -11.5 11.3 -91.4 -3.598
12:41 1004 29.65 833 24.6 2.7 36.8 35 -11.4 11.5 -91.4 -3.598
12:42 1004 29.65 833 24.6 2.6 36.7 37 -10.5 13 -91.4 -3.598
12:43 1004 29.65 833 24.6 2.5 36.5 36 -11 12.2 -91.4 -3.598
12:44 1004 29.65 833 24.6 2.6 36.6 37 -10.8 12.6 -91.4 -3.598
12:45 1004 29.65 833 24.6 2.6 36.6 35 -11.3 11.7 -91.4 -3.598
12:46 1004 29.65 833 24.6 2.6 36.7 33 -12 10.5 -91.4 -3.598
12:47 1004 29.65 833 24.6 2.6 36.7 38 -10.3 13.5 -91.4 -3.598
12:48 1004 29.65 833 24.6 2.6 36.6 38 -10.5 13.1 -91.4 -3.598
12:49 1004 29.65 833 24.6 2.6 36.7 40 -9.8 14.4 -91.4 -3.598
12:50 1004 29.65 833 24.6 2.5 36.6 37 -10.8 12.6 -91.4 -3.598
12:51 1004 29.65 833 24.6 2.6 36.7 36 -11.1 12 -91.4 -3.598
12:52 1004 29.65 833 24.6 2.6 36.7 38 -10.3 13.5 -91.4 -3.598
12:53 1004 29.65 833 24.6 2.6 36.6 37 -10.7 12.8 -91.5 -3.602
12:54 1004 29.65 833 24.6 2.5 36.5 41 -9.5 14.8 -91.5 -3.602
12:55 1004 29.65 833 24.6 2.4 36.4 39 -10.1 13.7 -91.4 -3.598
12:56 1004 29.65 833 24.6 2.5 36.5 37 -10.7 12.8 -91.4 -3.598
12:57 1004 29.65 833 24.6 2.5 36.5 37 -10.7 12.7 -91.4 -3.598
12:58 1004 29.65 833 24.6 2.6 36.7 37 -10.7 12.7 -91.4 -3.598
12:59 1004 29.65 833 24.6 2.7 36.8 39 -9.8 14.3 -91.4 -3.598
13:00 1004 29.65 833 24.6 2.6 36.7 39 -10.1 13.8 -91.4 -3.598
13:01 1004 29.65 833 24.6 2.6 36.7 41 -9.4 15 -91.4 -3.598
13:02 1004 29.65 833 24.6 2.5 36.6 41 -9.4 15.1 -91.4 -3.598
13:03 1004 29.65 833 24.6 2.5 36.5 42 -9 15.8 -91.4 -3.598
13:04 1004 29.65 833 24.6 2.4 36.4 41 -9.4 15.1 -91.4 -3.598
13:05 1004 29.65 833 24.6 2.4 36.4 38 -10.4 13.3 -91.4 -3.598
13:06 1004 29.65 833 24.6 2.5 36.5 41 -9.4 15 -91.4 -3.598
13:07 1004 29.65 833 24.6 2.5 36.4 40 -9.8 14.4 -91.3 -3.594
13:08 1004 29.65 833 24.6 2.5 36.4 41 -9.6 14.7 -91.3 -3.594
13:09 1004 29.65 833 24.6 2.4 36.4 41 -9.5 14.8 -91.3 -3.594
13:10 1004 29.65 833 24.6 2.5 36.4 42 -9.3 15.3 -91.3 -3.594
13:11 1004 29.65 833 24.6 2.5 36.4 40 -10 14.1 -91.3 -3.594
13:12 1004 29.65 833 24.6 2.5 36.5 40 -9.8 14.4 -91.3 -3.594
13:13 1004 29.65 833 24.6 2.5 36.5 41 -9.5 14.9 -91.3 -3.594
13:14 1004 29.65 833 24.6 2.6 36.6 42 -9.1 15.7 -91.3 -3.594
13:15 1004 29.65 833 24.6 2.6 36.6 40 -9.8 14.4 -91.3 -3.594
13:16 1004 29.65 833 24.6 2.7 36.8 38 -10.3 13.5 -91.3 -3.594
13:17 1004 29.65 833 24.6 2.7 36.9 38 -10.2 13.6 -91.3 -3.594
13:18 1004 29.65 833 24.6 2.8 37.1 37 -10.4 13.2 -91.3 -3.594
13:19 1004 29.65 833 24.6 2.9 37.2 37 -10.3 13.4 -91.3 -3.594
13:20 1004 29.65 833 24.6 2.9 37.2 35 -11.2 11.8 -91.3 -3.594
13:21 1004 29.65 833 24.6 2.9 37.3 37 -10.5 13.2 -91.3 -3.594
13:22 1004 29.65 833 24.6 2.9 37.2 37 -10.3 13.5 -91.3 -3.594
13:23 1004 29.65 833 24.6 2.9 37.1 38 -10.1 13.8 -91.4 -3.598
13:24 1004 29.65 833 24.6 2.7 36.9 36 -10.7 12.7 -91.3 -3.594
13:25 1004 29.65 833 24.6 2.8 37 39 -9.8 14.3 -91.3 -3.594
13:26 1004 29.65 833 24.6 2.7 36.9 39 -10 14 -91.3 -3.594
13:27 1004 29.65 833 24.6 2.6 36.8 39 -10 14 -91.3 -3.594
13:28 1004 29.65 833 24.6 2.6 36.7 38 -10.2 13.7 -91.3 -3.594
13:29 1004 29.65 833 24.6 2.6 36.7 39 -10 14 -91.3 -3.594
13:30 1004 29.65 833 24.6 2.6 36.8 39 -9.9 14.3 -91.3 -3.594
13:31 1004 29.65 833 24.6 2.7 36.8 37 -10.7 12.8 -91.3 -3.594
13:32 1004 29.65 833 24.6 2.6 36.7 37 -10.6 13 -91.3 -3.594
13:33 1004 29.65 833 24.6 2.7 36.9 37 -10.8 12.6 -91.3 -3.594
13:34 1004 29.65 833 24.6 2.7 36.9 34 -11.6 11.1 -91.3 -3.594
13:35 1004 29.65 833 24.6 2.8 37 35 -11 12.1 -91.3 -3.594
13:36 1004 29.65 833 24.6 2.8 37 32 -12.5 9.6 -91.3 -3.594
13:37 1004 29.65 833 24.6 2.9 37.2 36 -10.9 12.4 -91.3 -3.594
13:38 1004 29.65 833 24.6 2.9 37.1 35 -11.1 12.1 -91.4 -3.598
13:39 1004 29.65 833 24.6 2.8 37 36 -10.7 12.7 -91.4 -3.598
13:40 1004 29.65 833 24.6 2.7 36.9 35 -11.4 11.5 -91.4 -3.598
13:41 1004 29.65 833 24.6 2.8 37 35 -11.4 11.5 -91.4 -3.598
13:42 1004 29.65 833 24.6 2.8 37 36 -11 12.1 -91.4 -3.598
13:43 1004 29.65 833 24.6 2.8 37 36 -10.8 12.6 -91.4 -3.598
13:44 1004 29.65 833 24.6 2.8 37 36 -10.8 12.5 -91.3 -3.594
13:45 1004 29.65 833 24.6 2.8 37.1 35 -11.4 11.5 -91.3 -3.594
13:46 1004 29.65 833 24.6 2.8 37.1 36 -10.9 12.3 -91.3 -3.594
13:47 1004 29.65 833 24.6 2.8 37.1 35 -11.2 11.9 -91.3 -3.594
13:48 1004 29.65 833 24.6 2.9 37.1 33 -11.7 10.9 -91.3 -3.594
13:49 1004 29.65 833 24.6 3 37.3 33 -11.9 10.7 -91.3 -3.594
13:50 1004 29.65 833 24.6 3 37.4 32 -12.2 10.1 -91.4 -3.598
13:51 1004 29.65 833 24.6 3 37.4 34 -11.4 11.6 -91.5 -3.602
13:52 1004 29.65 833 24.6 3 37.3 32 -12.1 10.3 -91.5 -3.602
13:53 1004 29.65 833 24.6 3 37.4 36 -10.8 12.5 -91.5 -3.602
13:54 1004 29.65 833 24.6 2.9 37.2 34 -11.4 11.5 -91.4 -3.598
13:55 1004 29.65 833 24.6 2.9 37.2 36 -10.9 12.4 -91.4 -3.598
13:56 1004 29.65 833 24.6 2.8 37.1 36 -10.8 12.6 -91.5 -3.602
13:57 1004 29.65 833 24.6 2.7 36.9 35 -11.3 11.7 -91.5 -3.602
13:58 1004 29.65 833 24.6 2.7 36.9 38 -10.3 13.5 -91.5 -3.602
13:59 1004 29.65 833 24.6 2.7 36.8 36 -10.8 12.5 -91.4 -3.598
14:00 1004 29.65 833 24.6 2.7 36.8 37 -10.5 13.1 -91.4 -3.598
14:01 1004 29.65 833 24.6 2.7 36.8 38 -10.2 13.7 -91.4 -3.598
14:02 1004 29.65 833 24.6 2.6 36.7 39 -10.1 13.9 -91.4 -3.598
14:03 1004 29.65 833 24.6 2.5 36.6 38 -10.3 13.5 -91.4 -3.598
14:04 1004 29.65 833 24.6 2.6 36.7 35 -11.3 11.6 -91.4 -3.598
14:05 1004 29.65 833 24.6 2.8 37 39 -9.9 14.2 -91.4 -3.598
14:06 1004 29.65 833 24.6 2.7 36.9 40 -9.8 14.4 -91.4 -3.598
14:07 1004 29.65 833 24.6 2.8 37 33 -12.1 10.2 -91.4 -3.598
14:08 1004 29.65 833 24.6 2.9 37.3 34 -11.6 11 -91.4 -3.598
14:09 1004 29.65 833 24.6 2.9 37.3 36 -10.6 12.9 -91.4 -3.598
14:10 1004 29.65 833 24.6 3 37.3 37 -10.4 13.3 -91.4 -3.598
14:11 1004 29.65 833 24.6 3 37.3 39 -9.6 14.7 -91.3 -3.594
14:12 1004 29.65 833 24.6 2.9 37.3 36 -10.7 12.7 -91.3 -3.594
14:13 1004 29.65 833 24.6 3 37.3 38 -10 14 -91.3 -3.594
14:14 1004 29.65 833 24.6 2.9 37.3 36 -10.7 12.8 -91.3 -3.594
14:15 1004 29.65 833 24.6 2.9 37.3 37 -10.4 13.4 -91.3 -3.594
14:16 1004 29.65 833 24.6 2.9 37.3 36 -10.7 12.7 -91.3 -3.594
14:17 1004 29.65 834 24.63 2.8 37.1 35 -11.1 12 -91.3 -3.594
14:18 1004 29.65 833 24.6 2.8 37.1 40 -9.6 14.7 -91.3 -3.594
14:19 1004 29.65 833 24.6 2.8 37 41 -9.3 15.3 -91.3 -3.594
14:20 1004 29.65 833 24.6 2.6 36.8 40 -9.7 14.5 -91.3 -3.594
14:21 1004 29.65 834 24.63 2.6 36.7 40 -9.8 14.3 -91.3 -3.594
14:22 1004 29.65 833 24.6 2.6 36.7 36 -10.9 12.4 -91.3 -3.594
14:23 1004 29.65 833 24.6 2.7 36.9 32 -12.6 9.3 -91.3 -3.594
14:24 1004 29.65 833 24.6 2.8 37.1 35 -11 12.2 -91.4 -3.598
14:25 1004 29.65 833 24.6 2.8 37.1 33 -11.9 10.6 -91.3 -3.594
14:26 1004 29.65 834 24.63 2.8 37 33 -12.1 10.2 -91.4 -3.598
14:27 1004 29.65 834 24.63 2.8 37 34 -11.7 10.9 -91.4 -3.598
14:28 1004 29.65 834 24.63 2.8 37 36 -11 12.2 -91.4 -3.598
14:29 1004 29.65 834 24.63 2.7 36.9 39 -9.9 14.2 -91.4 -3.598
14:30 1004 29.65 834 24.63 2.6 36.6 38 -10.4 13.3 -91.4 -3.598
14:31 1004 29.65 833 24.6 2.4 36.4 37 -11 12.3 -91.3 -3.594
14:32 1004 29.65 834 24.63 2.4 36.4 36 -11.3 11.6 -91.3 -3.594
14:33 1004 29.65 833 24.6 2.5 36.4 37 -10.9 12.4 -91.3 -3.594
14:34 1004 29.65 833 24.6 2.4 36.3 39 -10.3 13.4 -91.3 -3.594
14:35 1004 29.65 833 24.6 2.3 36.2 38 -10.6 12.8 -91.3 -3.594
14:36 1004 29.65 834 24.63 2.3 36.1 40 -9.9 14.1 -91.3 -3.594
14:37 1004 29.65 834 24.63 2.2 36 39 -10.5 13.2 -91.3 -3.594
14:38 1004 29.65 833 24.6 2.2 36 40 -10 14 -91.3 -3.594
14:39 1004 29.65 834 24.63 2.3 36.1 39 -10.4 13.2 -91.3 -3.594
14:40 1004 29.65 834 24.63 2.3 36.1 37 -11 12.2 -91.3 -3.594
14:41 1004 29.65 834 24.63 2.3 36.1 37 -10.8 12.6 -91.3 -3.594
14:42 1004 29.65 834 24.63 2.4 36.3 39 -10.3 13.4 -91.3 -3.594
14:43 1004 29.65 834 24.63 2.3 36.2 39 -10.3 13.4 -91.3 -3.594
14:44 1004 29.65 834 24.63 2.3 36.1 39 -10.3 13.5 -91.3 -3.594
14:45 1004 29.65 834 24.63 2.3 36.1 38 -10.7 12.8 -91.3 -3.594
14:46 1004 29.65 834 24.63 2.3 36.2 39 -10.4 13.3 -91.3 -3.594
14:47 1004 29.65 834 24.63 2.3 36.2 40 -9.8 14.3 -91.3 -3.594
14:48 1004 29.65 834 24.63 2.2 36 40 -9.9 14.1 -91.3 -3.594
14:49 1004 29.65 834 24.63 2.2 35.9 41 -9.7 14.6 -91.3 -3.594
14:50 1004 29.65 834 24.63 2.1 35.8 40 -10.3 13.5 -91.3 -3.594
14:51 1004 29.65 834 24.63 2.1 35.9 38 -10.8 12.5 -91.3 -3.594
14:52 1004 29.65 834 24.63 2.2 36 39 -10.3 13.4 -91.3 -3.594
14:53 1004 29.65 834 24.63 2.2 35.9 41 -9.7 14.5 -91.3 -3.594
14:54 1004 29.65 834 24.63 2.1 35.8 39 -10.5 13.1 -91.3 -3.594
14:55 1005 29.68 834 24.63 2.1 35.7 39 -10.3 13.4 -91.3 -3.594
14:56 1004 29.65 834 24.63 2.1 35.8 39 -10.4 13.2 -91.3 -3.594
14:57 1005 29.68 834 24.63 2.1 35.8 40 -10.1 13.8 -91.3 -3.594
14:58 1005 29.68 834 24.63 2.1 35.7 40 -10.2 13.7 -91.3 -3.594
14:59 1005 29.68 834 24.63 2 35.7 40 -10.1 13.7 -91.3 -3.594
15:00 1005 29.68 834 24.63 2.1 35.7 41 -9.8 14.4 -91.3 -3.594
15:01 1005 29.68 834 24.63 2.1 35.7 40 -10.3 13.4 -91.3 -3.594
15:02 1005 29.68 834 24.63 2.1 35.7 40 -10.1 13.8 -91.3 -3.594
15:03 1005 29.68 834 24.63 2.1 35.7 38 -10.7 12.7 -91.3 -3.594
15:04 1005 29.68 834 24.63 2.1 35.7 40 -10.3 13.5 -91.3 -3.594
15:05 1005 29.68 834 24.63 2.1 35.8 40 -10.2 13.6 -91.3 -3.594
15:06 1005 29.68 834 24.63 2.1 35.8 38 -10.6 12.9 -91.3 -3.594
15:07 1005 29.68 834 24.63 2.2 35.9 41 -9.8 14.3 -91.3 -3.594
15:08 1005 29.68 834 24.63 2.1 35.8 40 -10 13.9 -91.3 -3.594
15:09 1005 29.68 834 24.63 2.1 35.9 41 -9.9 14.1 -91.3 -3.594
15:10 1005 29.68 834 24.63 2.1 35.8 43 -9.1 15.5 -91.3 -3.594
15:11 1005 29.68 834 24.63 2 35.7 43 -9.4 15.1 -91.3 -3.594
15:12 1005 29.68 834 24.63 2 35.6 42 -9.6 14.7 -91.3 -3.594
15:13 1005 29.68 834 24.63 2 35.6 41 -10 13.9 -91.3 -3.594
15:14 1005 29.68 834 24.63 2 35.6 41 -10 14 -91.3 -3.594
15:15 1005 29.68 834 24.63 2 35.6 43 -9.2 15.4 -91.3 -3.594
15:16 1005 29.68 834 24.63 1.9 35.5 42 -9.6 14.8 -91.3 -3.594
15:17 1005 29.68 834 24.63 1.9 35.4 43 -9.4 15 -91.3 -3.594
15:18 1005 29.68 834 24.63 1.8 35.3 41 -9.9 14.1 -91.3 -3.594
15:19 1005 29.68 834 24.63 1.8 35.2 43 -9.4 15.1 -91.3 -3.594
15:20 1005 29.68 834 24.63 1.8 35.2 42 -9.9 14.2 -91.3 -3.594
15:21 1005 29.68 834 24.63 1.7 35.1 46 -8.8 16.2 -91.3 -3.594
15:22 1005 29.68 834 24.63 1.7 35.1 41 -10 13.9 -91.3 -3.594
15:23 1005 29.68 834 24.63 1.8 35.2 45 -8.9 16 -91.3 -3.594
15:24 1005 29.68 834 24.63 1.7 35.1 42 -9.8 14.3 -91.3 -3.594
15:25 1005 29.68 834 24.63 1.8 35.2 42 -9.9 14.2 -91.3 -3.594
15:26 1005 29.68 834 24.63 1.8 35.3 43 -9.4 15.1 -91.3 -3.594
15:27 1005 29.68 834 24.63 1.7 35.1 44 -9.2 15.5 -91.3 -3.594
15:28 1005 29.68 834 24.63 1.7 35 45 -9 15.8 -91.3 -3.594
15:29 1005 29.68 834 24.63 1.6 34.9 43 -9.7 14.5 -91.3 -3.594
15:30 1005 29.68 834 24.63 1.6 34.9 44 -9.4 15 -91.3 -3.594
15:31 1005 29.68 834 24.63 1.6 34.9 42 -9.9 14.2 -91.3 -3.594
15:32 1005 29.68 834 24.63 1.6 34.9 44 -9.4 15 -91.3 -3.594
15:33 1005 29.68 834 24.63 1.6 34.9 44 -9.2 15.4 -91.3 -3.594
15:34 1005 29.68 834 24.63 1.5 34.8 44 -9.6 14.8 -91.3 -3.594
15:35 1005 29.68 834 24.63 1.6 34.8 41 -10.2 13.6 -91.3 -3.594
15:36 1005 29.68 834 24.63 1.6 34.9 44 -9.3 15.2 -91.3 -3.594
15:37 1005 29.68 834 24.63 1.6 35 41 -10.3 13.5 -91.3 -3.594
15:38 1005 29.68 834 24.63 1.7 35 43 -9.7 14.6 -91.3 -3.594
15:39 1005 29.68 834 24.63 1.7 35.1 42 -9.8 14.4 -91.4 -3.598
15:40 1005 29.68 834 24.63 1.8 35.2 40 -10.6 13 -91.4 -3.598
15:41 1005 29.68 834 24.63 1.8 35.3 40 -10.3 13.4 -91.4 -3.598
15:42 1005 29.68 834 24.63 1.9 35.4 40 -10.3 13.5 -91.4 -3.598
15:43 1005 29.68 834 24.63 1.9 35.3 40 -10.5 13.1 -91.4 -3.598
15:44 1005 29.68 834 24.63 1.8 35.3 41 -9.9 14.1 -91.4 -3.598
15:45 1005 29.68 834 24.63 1.8 35.2 41 -10.2 13.7 -91.4 -3.598
15:46 1005 29.68 834 24.63 1.8 35.3 41 -10 14.1 -91.4 -3.598
15:47 1005 29.68 834 24.63 1.8 35.2 43 -9.5 14.9 -91.4 -3.598
15:48 1005 29.68 834 24.63 1.8 35.3 43 -9.4 15.1 -91.4 -3.598
15:49 1005 29.68 834 24.63 1.7 35.1 44 -9.4 15.2 -91.4 -3.598
15:50 1005 29.68 834 24.63 1.7 35 44 -9.3 15.2 -91.4 -3.598
15:51 1005 29.68 834 24.63 1.7 35.1 43 -9.6 14.7 -91.4 -3.598
15:52 1005 29.68 834 24.63 1.7 35 44 -9.3 15.2 -91.4 -3.598
15:53 1005 29.68 834 24.63 1.6 34.9 45 -9 15.8 -91.4 -3.598
15:54 1005 29.68 834 24.63 1.5 34.8 45 -9.3 15.3 -91.4 -3.598
15:55 1005 29.68 834 24.63 1.5 34.7 46 -8.9 16.1 -91.4 -3.598
15:56 1005 29.68 834 24.63 1.5 34.6 44 -9.4 15 -91.4 -3.598
15:57 1005 29.68 834 24.63 1.5 34.8 43 -9.9 14.3 -91.4 -3.598
15:58 1005 29.68 834 24.63 1.6 34.9 43 -9.7 14.5 -91.4 -3.598
15:59 1005 29.68 834 24.63 1.6 34.9 43 -9.6 14.6 -91.4 -3.598
16:00 1005 29.68 834 24.63 1.7 35.1 44 -9.4 15.1 -91.4 -3.598
16:01 1005 29.68 834 24.63 1.7 35 41 -10.2 13.6 -91.4 -3.598
16:02 1005 29.68 834 24.63 1.8 35.3 40 -10.5 13.1 -91.4 -3.598
16:03 1005 29.68 834 24.63 2 35.5 40 -10.2 13.7 -91.4 -3.598
16:04 1005 29.68 834 24.63 1.9 35.4 41 -10 14 -91.4 -3.598
16:05 1005 29.68 834 24.63 1.9 35.4 40 -10.3 13.5 -91.4 -3.598
16:06 1005 29.68 834 24.63 1.9 35.4 42 -9.9 14.3 -91.4 -3.598
16:07 1005 29.68 834 24.63 1.8 35.2 42 -9.7 14.5 -91.4 -3.598
16:08 1005 29.68 834 24.63 1.7 35.1 42 -10 14.1 -91.4 -3.598
16:09 1005 29.68 834 24.63 1.8 35.2 39 -10.6 12.9 -91.4 -3.598
16:10 1005 29.68 834 24.63 1.9 35.4 38 -11.1 12.1 -91.4 -3.598
16:11 1005 29.68 834 24.63 2 35.6 39 -10.4 13.2 -91.4 -3.598
16:12 1005 29.68 834 24.63 1.9 35.5 40 -10.2 13.6 -91.5 -3.602
16:13 1005 29.68 834 24.63 1.9 35.4 39 -10.7 12.7 -91.4 -3.598
16:14 1005 29.68 834 24.63 1.9 35.4 38 -10.8 12.5 -91.4 -3.598
16:15 1005 29.68 834 24.63 1.9 35.3 41 -10.1 13.7 -91.4 -3.598
16:16 1005 29.68 834 24.63 1.7 35.1 39 -10.7 12.7 -91.4 -3.598
16:17 1005 29.68 834 24.63 1.8 35.2 37 -11.5 11.4 -91.4 -3.598
16:18 1005 29.68 834 24.63 1.9 35.4 39 -10.5 13 -91.4 -3.598
16:19 1005 29.68 834 24.63 1.9 35.4 39 -10.7 12.8 -91.5 -3.602
16:20 1005 29.68 834 24.63 1.9 35.4 40 -10.3 13.5 -91.5 -3.602
16:21 1005 29.68 834 24.63 1.8 35.3 42 -9.9 14.2 -91.5 -3.602
16:22 1005 29.68 834 24.63 1.7 35.1 41 -10.1 13.7 -91.5 -3.602
16:23 1005 29.68 835 24.66 1.6 34.9 43 -9.6 14.7 -91.4 -3.598
16:24 1005 29.68 834 24.63 1.5 34.7 42 -10 13.9 -91.5 -3.602
16:25 1005 29.68 834 24.63 1.5 34.7 44 -9.4 15.1 -91.5 -3.602
16:26 1005 29.68 834 24.63 1.4 34.5 42 -10 14 -91.5 -3.602
16:27 1005 29.68 834 24.63 1.4 34.5 45 -9.4 15.1 -91.5 -3.602
16:28 1005 29.68 834 24.63 1.3 34.4 43 -10 14 -91.5 -3.602
16:29 1005 29.68 834 24.63 1.3 34.3 45 -9.5 14.9 -91.5 -3.602
16:30 1005 29.68 834 24.63 1.2 34.2 43 -10 14 -91.5 -3.602
16:31 1005 29.68 834 24.63 1.2 34.1 47 -9.1 15.7 -91.5 -3.602
16:32 1005 29.68 835 24.66 1.1 34 45 -9.6 14.7 -91.5 -3.602
16:33 1005 29.68 835 24.66 1.1 33.9 47 -9.1 15.6 -91.5 -3.602
16:34 1005 29.68 835 24.66 1 33.7 47 -9.2 15.5 -91.5 -3.602
16:35 1005 29.68 835 24.66 0.9 33.7 46 -9.4 15.1 -91.5 -3.602
16:36 1005 29.68 835 24.66 0.9 33.7 44 -9.9 14.1 -91.5 -3.602
16:37 1005 29.68 835 24.66 1 33.8 44 -10 14.1 -91.5 -3.602
16:38 1005 29.68 835 24.66 1.1 34 44 -10 14.1 -91.5 -3.602
16:39 1005 29.68 835 24.66 1.2 34.1 43 -10 14 -91.5 -3.602
16:40 1005 29.68 835 24.66 1.2 34.1 44 -9.8 14.3 -91.5 -3.602
16:41 1005 29.68 835 24.66 1.1 34 45 -9.5 14.9 -91.5 -3.602
16:42 1006 29.71 835 24.66 1.1 34.1 46 -9.3 15.3 -91.5 -3.602
16:43 1006 29.71 835 24.66 1.1 33.9 47 -9.1 15.5 -91.5 -3.602
16:44 1006 29.71 835 24.66 1 33.8 45 -9.7 14.6 -91.5 -3.602
16:45 1006 29.71 835 24.66 1 33.8 44 -9.8 14.3 -91.5 -3.602
16:46 1006 29.71 835 24.66 1 33.8 45 -9.7 14.5 -91.5 -3.602
16:47 1006 29.71 835 24.66 1 33.8 44 -10 14 -91.5 -3.602
16:48 1006 29.71 835 24.66 1 33.9 43 -10.3 13.5 -91.5 -3.602
16:49 1006 29.71 835 24.66 1.2 34.1 42 -10.4 13.2 -91.5 -3.602
16:50 1006 29.71 835 24.66 1.2 34.1 43 -10 14 -91.5 -3.602
16:51 1006 29.71 835 24.66 1.1 34 45 -9.5 14.9 -91.5 -3.602
16:52 1006 29.71 835 24.66 1.1 33.9 46 -9.4 15 -91.5 -3.602
16:53 1006 29.71 835 24.66 1 33.8 47 -9.2 15.5 -91.5 -3.602
16:54 1006 29.71 835 24.66 0.9 33.6 45 -9.7 14.6 -91.6 -3.606
16:55 1006 29.71 835 24.66 0.9 33.5 45 -9.8 14.3 -91.5 -3.602
16:56 1006 29.71 835 24.66 0.9 33.6 46 -9.5 14.9 -91.5 -3.602
16:57 1006 29.71 835 24.66 0.8 33.5 46 -9.5 14.8 -91.5 -3.602
16:58 1006 29.71 835 24.66 0.8 33.5 46 -9.6 14.8 -91.5 -3.602
16:59 1006 29.71 835 24.66 0.7 33.3 47 -9.5 15 -91.5 -3.602
17:00 1006 29.71 835 24.66 0.7 33.2 46 -9.5 14.8 -91.5 -3.602
17:01 1006 29.71 835 24.66 0.7 33.2 47 -9.4 15 -91.5 -3.602
17:02 1006 29.71 835 24.66 0.6 33.1 48 -9.2 15.5 -91.5 -3.602
17:03 1006 29.71 835 24.66 0.5 33 47 -9.4 15.1 -91.5 -3.602
17:04 1006 29.71 835 24.66 0.5 32.8 49 -9.1 15.6 -91.5 -3.602
17:05 1006 29.71 835 24.66 0.4 32.8 48 -9.2 15.4 -91.5 -3.602
17:06 1006 29.71 835 24.66 0.4 32.8 49 -9.1 15.7 -91.5 -3.602
17:07 1006 29.71 835 24.66 0.4 32.7 49 -9 15.7 -91.5 -3.602
17:08 1006 29.71 835 24.66 0.3 32.6 48 -9.4 15 -91.6 -3.606
17:09 1006 29.71 835 24.66 0.3 32.6 48 -9.3 15.2 -91.6 -3.606
17:10 1006 29.71 835 24.66 0.3 32.6 49 -9.2 15.4 -91.6 -3.606
17:11 1006 29.71 835 24.66 0.3 32.5 50 -9 15.8 -91.6 -3.606
17:12 1006 29.71 835 24.66 0.2 32.4 50 -9 15.9 -91.6 -3.606
17:13 1006 29.71 835 24.66 0.2 32.3 51 -8.9 15.9 -91.6 -3.606
17:14 1006 29.71 835 24.66 0.1 32.2 51 -8.8 16.1 -91.6 -3.606
17:15 1006 29.71 835 24.66 0 32 51 -9 15.8 -91.6 -3.606
17:16 1006 29.71 835 24.66 -0.1 31.9 50 -9.2 15.4 -91.6 -3.606
17:17 1006 29.71 835 24.66 -0.1 31.8 50 -9.4 15.2 -91.6 -3.606
17:18 1006 29.71 835 24.66 -0.1 31.7 49 -9.5 14.9 -91.6 -3.606
17:19 1006 29.71 835 24.66 -0.1 31.8 51 -9.2 15.5 -91.6 -3.606
17:20 1006 29.71 835 24.66 -0.2 31.7 51 -9.1 15.7 -91.6 -3.606
17:21 1006 29.71 835 24.66 -0.3 31.5 50 -9.5 15 -91.6 -3.606
17:22 1006 29.71 835 24.66 -0.2 31.6 50 -9.4 15.1 -91.6 -3.606
17:23 1006 29.71 835 24.66 -0.3 31.5 51 -9.3 15.2 -91.6 -3.606
17:24 1006 29.71 835 24.66 -0.4 31.3 51 -9.2 15.4 -91.6 -3.606
17:25 1006 29.71 835 24.66 -0.4 31.2 50 -9.5 14.9 -91.6 -3.606
17:26 1006 29.71 835 24.66 -0.4 31.2 51 -9.5 14.9 -91.6 -3.606
17:27 1006 29.71 835 24.66 -0.4 31.2 51 -9.5 14.9 -91.6 -3.606
17:28 1006 29.71 835 24.66 -0.5 31.2 50 -9.6 14.7 -91.6 -3.606
17:29 1006 29.71 835 24.66 -0.4 31.3 49 -9.8 14.4 -91.6 -3.606
17:30 1006 29.71 835 24.66 -0.3 31.4 48 -10 14.1 -91.6 -3.606
17:31 1006 29.71 835 24.66 -0.2 31.7 49 -9.6 14.6 -91.7 -3.61
17:32 1006 29.71 835 24.66 -0.1 31.7 48 -10 14.1 -91.7 -3.61
17:33 1006 29.71 835 24.66 -0.1 31.8 49 -9.7 14.6 -91.7 -3.61
17:34 1006 29.71 835 24.66 -0.1 31.8 49 -9.6 14.7 -91.7 -3.61
17:35 1006 29.71 835 24.66 -0.1 31.9 48 -9.8 14.4 -91.7 -3.61
17:36 1006 29.71 835 24.66 -0.1 31.9 47 -10.2 13.7 -91.7 -3.61
17:37 1006 29.71 835 24.66 0.1 32.1 46 -10.1 13.8 -91.7 -3.61
17:38 1006 29.71 835 24.66 0.2 32.3 46 -10.2 13.7 -91.7 -3.61
17:39 1006 29.71 835 24.66 0.3 32.5 44 -10.7 12.7 -91.7 -3.61
17:40 1006 29.71 835 24.66 0.4 32.7 46 -10 13.9 -91.7 -3.61
17:41 1006 29.71 835 24.66 0.4 32.8 45 -10.1 13.9 -91.7 -3.61
17:42 1006 29.71 835 24.66 0.4 32.8 45 -10 13.9 -91.7 -3.61
17:43 1006 29.71 835 24.66 0.5 32.8 46 -9.9 14.2 -91.7 -3.61
17:44 1006 29.71 835 24.66 0.5 32.9 45 -10 13.9 -91.7 -3.61
17:45 1006 29.71 835 24.66 0.5 32.8 47 -9.7 14.5 -91.7 -3.61
17:46 1006 29.71 835 24.66 0.4 32.8 46 -9.9 14.3 -91.7 -3.61
17:47 1006 29.71 835 24.66 0.4 32.7 45 -10.1 13.8 -91.7 -3.61
17:48 1006 29.71 835 24.66 0.4 32.8 45 -10.1 13.8 -91.7 -3.61
17:49 1006 29.71 835 24.66 0.4 32.8 47 -9.7 14.5 -91.7 -3.61
17:50 1006 29.71 835 24.66 0.4 32.8 47 -9.8 14.4 -91.7 -3.61
17:51 1006 29.71 835 24.66 0.4 32.7 47 -9.7 14.5 -91.7 -3.61
17:52 1006 29.71 835 24.66 0.4 32.7 47 -9.6 14.7 -91.7 -3.61
17:53 1006 29.71 835 24.66 0.5 32.8 47 -9.7 14.6 -91.7 -3.61
17:54 1006 29.71 835 24.66 0.5 32.9 46 -9.9 14.2 -91.7 -3.61
17:55 1006 29.71 835 24.66 0.5 33 48 -9.3 15.3 -91.7 -3.61
17:56 1006 29.71 835 24.66 0.5 32.9 48 -9.4 15.1 -91.7 -3.61
17:57 1006 29.71 835 24.66 0.4 32.7 48 -9.4 15.1 -91.7 -3.61
17:58 1006 29.71 835 24.66 0.4 32.7 47 -9.6 14.6 -91.7 -3.61
17:59 1006 29.71 835 24.66 0.4 32.8 48 -9.3 15.2 -91.7 -3.61
18:00 1006 29.71 835 24.66 0.4 32.7 48 -9.3 15.2 -91.7 -3.61
18:01 1006 29.71 835 24.66 0.4 32.6 48 -9.4 15.1 -91.7 -3.61
18:02 1006 29.71 835 24.66 0.3 32.6 47 -9.6 14.7 -91.7 -3.61
18:03 1006 29.71 835 24.66 0.4 32.7 48 -9.4 15.1 -91.7 -3.61
18:04 1006 29.71 835 24.66 0.4 32.7 48 -9.5 15 -91.7 -3.61
18:05 1006 29.71 836 24.69 0.4 32.6 48 -9.3 15.3 -91.7 -3.61
18:06 1006 29.71 836 24.69 0.4 32.6 46 -10 14.1 -91.7 -3.61
18:07 1006 29.71 836 24.69 0.5 32.9 46 -9.7 14.5 -91.7 -3.61
18:08 1006 29.71 836 24.69 0.5 33 48 -9.2 15.4 -91.7 -3.61
18:09 1006 29.71 836 24.69 0.4 32.8 47 -9.6 14.7 -91.7 -3.61
18:10 1006 29.71 836 24.69 0.4 32.7 47 -9.7 14.6 -91.7 -3.61
18:11 1006 29.71 836 24.69 0.4 32.7 48 -9.3 15.2 -91.7 -3.61
18:12 1006 29.71 836 24.69 0.3 32.5 48 -9.4 15.1 -91.7 -3.61
18:13 1006 29.71 835 24.66 0.2 32.4 46 -10.2 13.7 -91.7 -3.61
18:14 1006 29.71 836 24.69 0.3 32.6 48 -9.5 14.8 -91.7 -3.61
18:15 1006 29.71 835 24.66 0.4 32.6 47 -9.7 14.6 -91.7 -3.61
18:16 1006 29.71 836 24.69 0.3 32.6 45 -10.2 13.6 -91.7 -3.61
18:17 1006 29.71 835 24.66 0.4 32.7 44 -10.5 13.1 -91.7 -3.61
18:18 1006 29.71 836 24.69 0.5 32.8 47 -9.7 14.5 -91.7 -3.61
18:19 1006 29.71 836 24.69 0.5 32.9 46 -9.9 14.2 -91.7 -3.61
18:20 1006 29.71 836 24.69 0.5 32.9 43 -10.6 12.9 -91.7 -3.61
18:21 1006 29.71 836 24.69 0.6 33.2 43 -10.6 12.9 -91.7 -3.61
18:22 1006 29.71 836 24.69 0.7 33.2 42 -10.7 12.7 -91.7 -3.61
18:23 1006 29.71 836 24.69 0.7 33.2 43 -10.6 13 -91.7 -3.61
18:24 1006 29.71 836 24.69 0.7 33.3 44 -10.2 13.7 -91.7 -3.61
18:25 1006 29.71 836 24.69 0.7 33.2 45 -10 14.1 -91.7 -3.61
18:26 1006 29.71 836 24.69 0.5 32.9 44 -10.4 13.3 -91.8 -3.614
18:27 1006 29.71 836 24.69 0.5 32.9 44 -10.5 13.1 -91.8 -3.614
18:28 1006 29.71 836 24.69 0.5 32.9 43 -10.6 12.8 -91.7 -3.61
18:29 1006 29.71 836 24.69 0.5 32.8 44 -10.5 13.1 -91.8 -3.614
18:30 1006 29.71 836 24.69 0.5 32.9 43 -10.9 12.5 -91.8 -3.614
18:31 1006 29.71 836 24.69 0.5 32.8 44 -10.4 13.2 -91.8 -3.614
18:32 1006 29.71 836 24.69 0.4 32.7 44 -10.4 13.2 -91.8 -3.614
18:33 1006 29.71 836 24.69 0.3 32.6 44 -10.4 13.2 -91.7 -3.61
18:34 1006 29.71 836 24.69 0.3 32.6 46 -10.1 13.7 -91.7 -3.61
18:35 1006 29.71 836 24.69 0.2 32.4 46 -10.2 13.6 -91.8 -3.614
18:36 1006 29.71 836 24.69 0.2 32.4 45 -10.5 13.1 -91.8 -3.614
18:37 1006 29.71 836 24.69 0.2 32.3 45 -10.5 13.1 -91.8 -3.614
18:38 1006 29.71 836 24.69 0.2 32.4 45 -10.3 13.4 -91.8 -3.614
18:39 1006 29.71 836 24.69 0.2 32.3 47 -9.8 14.4 -91.8 -3.614
18:40 1006 29.71 836 24.69 0.1 32.2 47 -10 14 -91.8 -3.614
18:41 1006 29.71 836 24.69 0 32.1 47 -10 14 -91.8 -3.614
18:42 1006 29.71 836 24.69 -0 31.9 47 -10 14 -91.8 -3.614
18:43 1006 29.71 836 24.69 -0.1 31.8 48 -9.8 14.3 -91.8 -3.614
18:44 1006 29.71 836 24.69 -0.2 31.7 48 -10 14 -91.8 -3.614
18:45 1006 29.71 836 24.69 -0.2 31.7 48 -10 13.9 -91.8 -3.614
18:46 1006 29.71 836 24.69 -0.3 31.5 48 -10.1 13.9 -91.8 -3.614
18:47 1006 29.71 836 24.69 -0.3 31.5 50 -9.5 14.9 -91.8 -3.614
18:48 1006 29.71 836 24.69 -0.4 31.3 48 -10.1 13.8 -91.8 -3.614
18:49 1006 29.71 836 24.69 -0.4 31.3 48 -10.1 13.8 -91.8 -3.614
18:50 1006 29.71 836 24.69 -0.3 31.4 49 -9.7 14.5 -91.8 -3.614
18:51 1007 29.74 836 24.69 -0.4 31.3 50 -9.7 14.6 -91.8 -3.614
18:52 1007 29.74 836 24.69 -0.5 31.1 48 -10.3 13.5 -91.8 -3.614
18:53 1007 29.74 836 24.69 -0.4 31.3 50 -9.7 14.5 -91.8 -3.614
18:54 1007 29.74 836 24.69 -0.4 31.3 48 -10.2 13.6 -91.8 -3.614
18:55 1007 29.74 836 24.69 -0.3 31.5 47 -10.2 13.7 -91.8 -3.614
18:56 1007 29.74 836 24.69 -0.1 31.9 45 -10.6 12.9 -91.8 -3.614
18:57 1007 29.74 836 24.69 0.2 32.3 44 -10.7 12.7 -91.8 -3.614
18:58 1007 29.74 836 24.69 0.4 32.7 42 -11.1 12 -91.8 -3.614
18:59 1006 29.71 836 24.69 0.6 33 40 -11.7 11 -91.8 -3.614
19:00 1007 29.74 836 24.69 0.8 33.5 40 -11.2 11.8 -91.8 -3.614
19:01 1007 29.74 836 24.69 0.9 33.6 40 -11.2 11.8 -91.8 -3.614
19:02 1007 29.74 836 24.69 0.9 33.6 42 -10.7 12.8 -91.8 -3.614
19:03 1007 29.74 836 24.69 0.8 33.5 40 -11.4 11.4 -91.8 -3.614
19:04 1007 29.74 836 24.69 0.9 33.5 40 -11.3 11.7 -91.8 -3.614
19:05 1007 29.74 836 24.69 0.9 33.6 42 -10.6 13 -91.8 -3.614
19:06 1007 29.74 836 24.69 0.8 33.5 43 -10.3 13.4 -91.8 -3.614
19:07 1007 29.74 836 24.69 0.7 33.3 44 -10.3 13.5 -91.8 -3.614
19:08 1007 29.74 836 24.69 0.6 33.1 44 -10.3 13.4 -91.8 -3.614
19:09 1007 29.74 836 24.69 0.5 32.9 45 -10.1 13.7 -91.8 -3.614
19:10 1007 29.74 836 24.69 0.5 32.8 45 -10 14 -91.8 -3.614
19:11 1007 29.74 836 24.69 0.4 32.7 44 -10.5 13.1 -91.8 -3.614
19:12 1007 29.74 836 24.69 0.5 32.8 43 -10.7 12.7 -91.8 -3.614
19:13 1007 29.74 836 24.69 0.5 32.9 44 -10.4 13.4 -91.8 -3.614
19:14 1007 29.74 836 24.69 0.5 32.8 45 -10.2 13.7 -91.8 -3.614
19:15 1007 29.74 836 24.69 0.4 32.7 44 -10.5 13.1 -91.8 -3.614
19:16 1007 29.74 836 24.69 0.4 32.6 44 -10.5 13.1 -91.8 -3.614
19:17 1007 29.74 836 24.69 0.3 32.6 45 -10.3 13.5 -91.8 -3.614
19:18 1007 29.74 836 24.69 0.2 32.4 45 -10.3 13.4 -91.8 -3.614
19:19 1007 29.74 836 24.69 0.2 32.3 46 -10.1 13.8 -91.8 -3.614
19:20 1007 29.74 836 24.69 0.1 32.2 46 -10.3 13.5 -91.8 -3.614
19:21 1007 29.74 836 24.69 0 32 46 -10.2 13.6 -91.8 -3.614
19:22 1007 29.74 836 24.69 -0 32 46 -10.2 13.6 -91.8 -3.614
19:23 1007 29.74 836 24.69 -0.1 31.9 46 -10.3 13.4 -91.8 -3.614
19:24 1007 29.74 836 24.69 0 32 46 -10.4 13.3 -91.8 -3.614
19:25 1007 29.74 836 24.69 0.2 32.3 47 -9.8 14.3 -91.8 -3.614
19:26 1007 29.74 836 24.69 0.1 32.2 44 -10.7 12.7 -91.8 -3.614
19:27 1007 29.74 836 24.69 0.2 32.4 41 -11.7 11 -91.8 -3.614
19:28 1007 29.74 836 24.69 0.4 32.8 42 -11.2 11.9 -91.8 -3.614
19:29 1007 29.74 836 24.69 0.5 32.9 41 -11.3 11.7 -91.8 -3.614
19:30 1007 29.74 836 24.69 0.6 33.1 38 -12.2 10.1 -91.8 -3.614
19:31 1007 29.74 836 24.69 0.7 33.3 39 -11.6 11.1 -91.8 -3.614
19:32 1007 29.74 836 24.69 0.7 33.3 41 -11.1 11.9 -91.8 -3.614
19:33 1007 29.74 836 24.69 0.7 33.2 39 -11.7 11 -91.8 -3.614
19:34 1007 29.74 836 24.69 0.7 33.3 39 -11.6 11.2 -91.8 -3.614
19:35 1007 29.74 836 24.69 0.8 33.4 40 -11.4 11.6 -91.8 -3.614
19:36 1007 29.74 836 24.69 0.7 33.2 41 -11.2 11.8 -91.8 -3.614
19:37 1007 29.74 836 24.69 0.6 33 41 -11.3 11.7 -91.8 -3.614
19:38 1007 29.74 836 24.69 0.5 33 42 -11 12.2 -91.8 -3.614
19:39 1007 29.74 836 24.69 0.5 33 41 -11.3 11.7 -91.8 -3.614
19:40 1007 29.74 836 24.69 0.5 33 41 -11.3 11.7 -91.8 -3.614
19:41 1007 29.74 836 24.69 0.5 32.9 42 -11 12.2 -91.8 -3.614
19:42 1007 29.74 836 24.69 0.5 32.9 41 -11.2 11.9 -91.8 -3.614
19:43 1007 29.74 836 24.69 0.5 32.9 43 -10.7 12.8 -91.8 -3.614
19:44 1007 29.74 836 24.69 0.4 32.7 45 -10.3 13.5 -91.8 -3.614
19:45 1007 29.74 836 24.69 0.3 32.5 44 -10.5 13.1 -91.8 -3.614
19:46 1007 29.74 836 24.69 0.2 32.4 46 -10.1 13.8 -91.9 -3.618
19:47 1007 29.74 836 24.69 0.1 32.2 46 -10.3 13.5 -91.8 -3.614
19:48 1007 29.74 836 24.69 0.1 32.1 45 -10.5 13.2 -91.9 -3.618
19:49 1007 29.74 836 24.69 0 32 47 -10 13.9 -91.8 -3.614
19:50 1007 29.74 836 24.69 -0.1 31.9 47 -10 14.1 -91.9 -3.618
19:51 1007 29.74 836 24.69 -0.1 31.9 47 -10.2 13.6 -91.9 -3.618
19:52 1007 29.74 836 24.69 -0.1 31.7 48 -10 14 -91.9 -3.618
19:53 1007 29.74 836 24.69 -0.2 31.7 49 -9.6 14.7 -91.9 -3.618
19:54 1007 29.74 836 24.69 -0.2 31.6 49 -9.8 14.3 -91.9 -3.618
19:55 1007 29.74 836 24.69 -0.3 31.5 48 -9.9 14.1 -91.8 -3.614
19:56 1007 29.74 836 24.69 -0.3 31.5 49 -9.7 14.6 -91.8 -3.614
19:57 1007 29.74 836 24.69 -0.3 31.4 48 -10 13.9 -91.9 -3.618
19:58 1007 29.74 836 24.69 -0.3 31.4 50 -9.6 14.6 -91.9 -3.618
19:59 1007 29.74 836 24.69 -0.3 31.4 49 -9.7 14.5 -91.9 -3.618
20:00 1007 29.74 836 24.69 -0.3 31.4 47 -10.2 13.6 -91.9 -3.618
20:01 1007 29.74 836 24.69 -0.3 31.5 50 -9.5 14.9 -91.9 -3.618
20:02 1007 29.74 836 24.69 -0.3 31.4 50 -9.6 14.7 -91.9 -3.618
20:03 1007 29.74 836 24.69 -0.4 31.3 52 -9.2 15.5 -91.9 -3.618
20:04 1007 29.74 836 24.69 -0.4 31.2 50 -9.5 14.9 -91.9 -3.618
20:05 1007 29.74 836 24.69 -0.5 31.2 51 -9.3 15.3 -91.9 -3.618
20:06 1007 29.74 836 24.69 -0.4 31.2 51 -9.3 15.3 -91.9 -3.618
20:07 1007 29.74 837 24.72 -0.5 31.1 51 -9.4 15 -91.9 -3.618
20:08 1007 29.74 837 24.72 -0.5 31.2 49 -10 14 -91.9 -3.618
20:09 1007 29.74 837 24.72 -0.4 31.2 51 -9.5 14.9 -91.9 -3.618
20:10 1007 29.74 837 24.72 -0.4 31.3 50 -9.5 14.9 -91.9 -3.618
20:11 1007 29.74 837 24.72 -0.4 31.2 51 -9.3 15.2 -91.9 -3.618
20:12 1007 29.74 837 24.72 -0.5 31.1 50 -9.7 14.5 -91.9 -3.618
20:13 1007 29.74 837 24.72 -0.5 31.2 49 -9.8 14.4 -91.9 -3.618
20:14 1007 29.74 837 24.72 -0.3 31.4 47 -10.3 13.5 -91.9 -3.618
20:15 1007 29.74 837 24.72 -0.1 31.8 48 -9.8 14.4 -91.9 -3.618
20:16 1007 29.74 837 24.72 0 32 47 -9.9 14.2 -91.9 -3.618
20:17 1007 29.74 837 24.72 0.1 32.1 49 -9.3 15.2 -91.9 -3.618
20:18 1007 29.74 837 24.72 -0 32 49 -9.5 14.9 -91.9 -3.618
20:19 1008 29.77 837 24.72 -0.1 31.9 51 -9.1 15.6 -91.9 -3.618
20:20 1008 29.77 837 24.72 -0.1 31.9 51 -9.2 15.5 -91.9 -3.618
20:21 1008 29.77 837 24.72 -0.1 31.7 52 -8.8 16.2 -91.9 -3.618
20:22 1007 29.74 837 24.72 -0.2 31.6 53 -8.8 16.2 -91.9 -3.618
20:23 1007 29.74 837 24.72 -0.3 31.4 53 -8.8 16.1 -91.9 -3.618
20:24 1008 29.77 837 24.72 -0.3 31.4 53 -8.7 16.4 -91.9 -3.618
20:25 1008 29.77 837 24.72 -0.3 31.5 53 -8.7 16.3 -91.9 -3.618
20:26 1008 29.77 837 24.72 -0.3 31.4 54 -8.5 16.7 -91.9 -3.618
20:27 1008 29.77 837 24.72 -0.4 31.3 54 -8.5 16.6 -91.9 -3.618
20:28 1008 29.77 837 24.72 -0.4 31.2 55 -8.3 17.1 -91.9 -3.618
20:29 1008 29.77 837 24.72 -0.5 31.2 56 -8.3 17.1 -91.9 -3.618
20:30 1008 29.77 837 24.72 -0.5 31.1 56 -8.2 17.2 -91.9 -3.618
20:31 1008 29.77 837 24.72 -0.5 31.1 56 -8.3 17.1 -91.9 -3.618
20:32 1008 29.77 837 24.72 -0.5 31.1 57 -8 17.6 -91.9 -3.618
20:33 1008 29.77 837 24.72 -0.5 31 56 -8.4 16.9 -91.9 -3.618
20:34 1008 29.77 837 24.72 -0.5 31.1 57 -8.1 17.4 -91.9 -3.618
20:35 1008 29.77 837 24.72 -0.5 31.1 57 -8.1 17.5 -91.9 -3.618
20:36 1008 29.77 837 24.72 -0.5 31.1 57 -8.1 17.4 -91.9 -3.618
20:37 1008 29.77 837 24.72 -0.5 31 57 -8.1 17.5 -91.9 -3.618
20:38 1008 29.77 837 24.72 -0.6 31 57 -8 17.6 -91.9 -3.618
20:39 1008 29.77 837 24.72 -0.6 30.9 59 -7.7 18.1 -91.9 -3.618
20:40 1008 29.77 837 24.72 -0.7 30.8 58 -7.9 17.8 -91.9 -3.618
20:41 1008 29.77 837 24.72 -0.8 30.6 58 -7.9 17.7 -91.9 -3.618
20:42 1008 29.77 837 24.72 -0.8 30.6 58 -8 17.7 -91.9 -3.618
20:43 1008 29.77 837 24.72 -0.8 30.6 59 -7.9 17.8 -91.9 -3.618
20:44 1008 29.77 837 24.72 -0.8 30.6 59 -7.9 17.8 -91.9 -3.618
20:45 1008 29.77 837 24.72 -0.8 30.6 60 -7.5 18.5 -91.9 -3.618
20:46 1008 29.77 837 24.72 -0.8 30.6 59 -7.7 18.1 -91.9 -3.618
20:47 1008 29.77 837 24.72 -0.8 30.5 60 -7.6 18.2 -91.9 -3.618
20:48 1008 29.77 837 24.72 -0.8 30.5 60 -7.6 18.3 -91.9 -3.618
20:49 1008 29.77 837 24.72 -0.8 30.5 60 -7.6 18.4 -91.9 -3.618
20:50 1008 29.77 837 24.72 -0.8 30.5 61 -7.5 18.5 -91.9 -3.618
20:51 1008 29.77 837 24.72 -0.9 30.4 61 -7.5 18.4 -91.9 -3.618
20:52 1008 29.77 837 24.72 -0.9 30.5 61 -7.4 18.7 -91.9 -3.618
20:53 1008 29.77 837 24.72 -0.9 30.5 61 -7.5 18.5 -91.9 -3.618
20:54 1008 29.77 837 24.72 -0.9 30.4 62 -7.3 18.8 -91.9 -3.618
20:55 1008 29.77 837 24.72 -0.9 30.4 62 -7.3 18.9 -91.9 -3.618
20:56 1008 29.77 837 24.72 -0.9 30.3 60 -7.7 18.2 -91.9 -3.618
20:57 1008 29.77 837 24.72 -0.9 30.5 61 -7.5 18.5 -91.9 -3.618
20:58 1008 29.77 837 24.72 -0.8 30.6 60 -7.6 18.2 -91.9 -3.618
20:59 1008 29.77 837 24.72 -0.7 30.7 61 -7.4 18.6 -91.9 -3.618
21:00 1008 29.77 837 24.72 -0.8 30.6 60 -7.5 18.4 -91.9 -3.618
21:01 1008 29.77 837 24.72 -0.8 30.6 61 -7.4 18.7 -91.9 -3.618
21:02 1008 29.77 837 24.72 -0.8 30.6 62 -7.3 18.9 -91.9 -3.618
21:03 1008 29.77 837 24.72 -0.8 30.6 62 -7.2 19 -91.9 -3.618
21:04 1008 29.77 837 24.72 -0.8 30.6 63 -7 19.4 -91.9 -3.618
21:05 1008 29.77 837 24.72 -0.8 30.5 62 -7.2 19.1 -91.9 -3.618
21:06 1008 29.77 837 24.72 -0.8 30.5 63 -7 19.4 -91.9 -3.618
21:07 1008 29.77 837 24.72 -0.8 30.5 64 -6.8 19.8 -91.9 -3.618
21:08 1008 29.77 837 24.72 -0.9 30.3 64 -6.9 19.6 -91.9 -3.618
21:09 1008 29.77 837 24.72 -0.9 30.4 65 -6.6 20.1 -91.9 -3.618
21:10 1008 29.77 837 24.72 -0.9 30.3 65 -6.7 20 -91.9 -3.618
21:11 1008 29.77 837 24.72 -1 30.3 66 -6.6 20.2 -91.9 -3.618
21:12 1008 29.77 837 24.72 -1 30.2 67 -6.4 20.4 -91.9 -3.618
21:13 1008 29.77 837 24.72 -1.1 30.1 67 -6.5 20.3 -91.9 -3.618
21:14 1008 29.77 837 24.72 -1.1 30 68 -6.3 20.6 -91.9 -3.618
21:15 1008 29.77 837 24.72 -1.1 29.9 69 -6.2 20.8 -91.9 -3.618
21:16 1008 29.77 837 24.72 -1.2 29.9 68 -6.3 20.7 -91.9 -3.618
21:17 1008 29.77 837 24.72 -1.2 29.8 69 -6.2 20.8 -91.9 -3.618
21:18 1008 29.77 837 24.72 -1.2 29.8 70 -6.1 21 -91.9 -3.618
21:19 1008 29.77 837 24.72 -1.3 29.7 69 -6.2 20.9 -91.9 -3.618
21:20 1008 29.77 837 24.72 -1.3 29.7 68 -6.4 20.5 -91.9 -3.618
21:21 1008 29.77 837 24.72 -1.2 29.8 68 -6.3 20.6 -91.9 -3.618
21:22 1008 29.77 838 24.75 -1.3 29.7 69 -6.3 20.6 -91.9 -3.618
21:23 1008 29.77 838 24.75 -1.3 29.7 69 -6.2 20.8 -91.9 -3.618
21:24 1008 29.77 838 24.75 -1.3 29.7 69 -6.2 20.8 -91.9 -3.618
21:25 1008 29.77 838 24.75 -1.3 29.6 70 -6.1 21 -91.9 -3.618
21:26 1008 29.77 838 24.75 -1.4 29.5 70 -6.2 20.9 -91.9 -3.618
21:27 1008 29.77 838 24.75 -1.4 29.5 70 -6.1 21 -91.9 -3.618
21:28 1008 29.77 838 24.75 -1.4 29.5 71 -6 21.2 -91.9 -3.618
21:29 1008 29.77 838 24.75 -1.5 29.3 72 -5.9 21.3 -91.9 -3.618
21:30 1008 29.77 838 24.75 -1.5 29.2 72 -5.9 21.4 -91.9 -3.618
21:31 1008 29.77 838 24.75 -1.6 29.1 73 -5.9 21.4 -91.9 -3.618
21:32 1008 29.77 838 24.75 -1.6 29.1 73 -5.8 21.5 -91.9 -3.618
21:33 1008 29.77 838 24.75 -1.6 29 73 -5.9 21.3 -91.9 -3.618
21:34 1009 29.8 838 24.75 -1.6 29 74 -5.7 21.8 -91.9 -3.618
21:35 1009 29.8 838 24.75 -1.7 29 73 -5.9 21.5 -91.9 -3.618
21:36 1009 29.8 838 24.75 -1.7 29 73 -5.9 21.5 -91.9 -3.618
21:37 1009 29.8 838 24.75 -1.7 28.9 74 -5.8 21.5 -91.9 -3.618
21:38 1009 29.8 838 24.75 -1.7 28.9 74 -5.8 21.6 -91.9 -3.618
21:39 1009 29.8 838 24.75 -1.7 28.9 74 -5.8 21.6 -91.9 -3.618
21:40 1009 29.8 838 24.75 -1.7 28.9 74 -5.8 21.6 -91.9 -3.618
21:41 1009 29.8 838 24.75 -1.7 29 74 -5.7 21.7 -91.9 -3.618
21:42 1009 29.8 838 24.75 -1.7 29 74 -5.8 21.5 -91.9 -3.618
21:43 1009 29.8 838 24.75 -1.7 29 74 -5.8 21.6 -91.9 -3.618
21:44 1009 29.8 838 24.75 -1.7 29 74 -5.8 21.5 -91.9 -3.618
21:45 1009 29.8 838 24.75 -1.7 29 74 -5.7 21.7 -91.9 -3.618
21:46 1009 29.8 838 24.75 -1.7 29 75 -5.6 22 -91.9 -3.618
21:47 1009 29.8 838 24.75 -1.7 29 76 -5.5 22.2 -91.9 -3.618
21:48 1009 29.8 838 24.75 -1.8 28.8 75 -5.6 21.9 -91.9 -3.618
21:49 1009 29.8 838 24.75 -1.7 28.9 75 -5.5 22 -91.8 -3.614
21:50 1009 29.8 838 24.75 -1.8 28.8 76 -5.5 22.1 -91.9 -3.618
21:51 1009 29.8 838 24.75 -1.8 28.8 76 -5.5 22.2 -91.9 -3.618
21:52 1009 29.8 838 24.75 -1.8 28.8 76 -5.5 22 -91.8 -3.614
21:53 1009 29.8 838 24.75 -1.8 28.8 76 -5.5 22 -91.8 -3.614
21:54 1009 29.8 838 24.75 -1.8 28.7 76 -5.5 22.1 -91.8 -3.614
21:55 1009 29.8 838 24.75 -1.8 28.7 76 -5.5 22.1 -91.8 -3.614
21:56 1009 29.8 838 24.75 -1.8 28.7 76 -5.5 22.1 -91.8 -3.614
21:57 1009 29.8 838 24.75 -1.8 28.7 77 -5.4 22.3 -91.8 -3.614
21:58 1009 29.8 838 24.75 -1.9 28.6 76 -5.5 22.1 -91.8 -3.614
21:59 1009 29.8 838 24.75 -1.9 28.6 76 -5.5 22.1 -91.8 -3.614
22:00 1009 29.8 838 24.75 -1.9 28.6 77 -5.4 22.3 -91.8 -3.614
22:01 1009 29.8 838 24.75 -1.9 28.6 76 -5.5 22.1 -91.8 -3.614
22:02 1009 29.8 838 24.75 -1.9 28.6 77 -5.4 22.3 -91.8 -3.614
22:03 1009 29.8 838 24.75 -1.9 28.6 77 -5.4 22.3 -91.8 -3.614
22:04 1009 29.8 838 24.75 -1.9 28.5 77 -5.4 22.3 -91.8 -3.614
22:05 1009 29.8 838 24.75 -1.9 28.5 77 -5.4 22.3 -91.8 -3.614
22:06 1009 29.8 838 24.75 -2 28.5 78 -5.4 22.3 -91.8 -3.614
22:07 1009 29.8 838 24.75 -2 28.5 78 -5.2 22.6 -91.8 -3.614
22:08 1009 29.8 838 24.75 -2 28.4 78 -5.3 22.5 -91.8 -3.614
22:09 1009 29.8 838 24.75 -2 28.3 79 -5.3 22.5 -91.8 -3.614
22:10 1009 29.8 838 24.75 -2.1 28.2 79 -5.2 22.6 -91.8 -3.614
22:11 1009 29.8 838 24.75 -2.1 28.1 79 -5.3 22.5 -91.8 -3.614
22:12 1009 29.8 838 24.75 -2.2 28.1 80 -5.2 22.6 -91.8 -3.614
22:13 1009 29.8 838 24.75 -2.2 28.1 80 -5.2 22.6 -91.8 -3.614
22:14 1009 29.8 838 24.75 -2.2 28 79 -5.3 22.4 -91.8 -3.614
22:15 1009 29.8 838 24.75 -2.2 28.1 79 -5.3 22.5 -91.8 -3.614
22:16 1009 29.8 838 24.75 -2.2 28.1 79 -5.3 22.4 -91.8 -3.614
22:17 1009 29.8 838 24.75 -2.2 28.1 79 -5.3 22.4 -91.8 -3.614
22:18 1009 29.8 838 24.75 -2.1 28.2 79 -5.3 22.5 -91.8 -3.614
22:19 1009 29.8 838 24.75 -2.2 28.1 79 -5.3 22.5 -91.8 -3.614
22:20 1009 29.8 839 24.78 -2.1 28.2 79 -5.3 22.5 -91.8 -3.614
22:21 1009 29.8 839 24.78 -2.1 28.1 79 -5.4 22.3 -91.8 -3.614
22:22 1009 29.8 839 24.78 -2.1 28.1 78 -5.4 22.3 -91.8 -3.614
22:23 1009 29.8 838 24.75 -2.1 28.2 78 -5.4 22.3 -91.8 -3.614
22:24 1009 29.8 838 24.75 -2.1 28.2 79 -5.3 22.5 -91.8 -3.614
22:25 1009 29.8 839 24.78 -2.1 28.1 79 -5.3 22.4 -91.8 -3.614
22:26 1009 29.8 839 24.78 -2.1 28.1 79 -5.4 22.3 -91.8 -3.614
22:27 1009 29.8 839 24.78 -2.1 28.2 79 -5.3 22.5 -91.8 -3.614
22:28 1009 29.8 839 24.78 -2.2 28.1 79 -5.3 22.5 -91.8 -3.614
22:29 1009 29.8 839 24.78 -2.2 28.1 79 -5.4 22.3 -91.8 -3.614
22:30 1009 29.8 839 24.78 -2.2 28.1 78 -5.4 22.2 -91.8 -3.614
22:31 1009 29.8 839 24.78 -2.1 28.2 78 -5.5 22.1 -91.8 -3.614
22:32 1009 29.8 839 24.78 -2.1 28.2 77 -5.6 21.9 -91.8 -3.614
22:33 1009 29.8 839 24.78 -2.1 28.2 76 -5.8 21.6 -91.8 -3.614
22:34 1009 29.8 839 24.78 -2.1 28.2 77 -5.6 22 -91.8 -3.614
22:35 1009 29.8 839 24.78 -2.1 28.2 77 -5.6 21.9 -91.8 -3.614
22:36 1010 29.83 839 24.78 -2.1 28.2 77 -5.6 21.9 -91.9 -3.618
22:37 1010 29.83 839 24.78 -2.1 28.2 78 -5.4 22.2 -91.9 -3.618
22:38 1010 29.83 839 24.78 -2.1 28.1 78 -5.5 22.1 -91.9 -3.618
22:39 1010 29.83 839 24.78 -2.1 28.1 76 -5.8 21.5 -91.9 -3.618
22:40 1010 29.83 839 24.78 -2.2 28.1 77 -5.6 21.9 -91.9 -3.618
22:41 1010 29.83 839 24.78 -2.2 28.1 77 -5.7 21.7 -91.9 -3.618
22:42 1010 29.83 839 24.78 -2.2 28 78 -5.6 21.9 -91.9 -3.618
22:43 1010 29.83 839 24.78 -2.2 28 78 -5.5 22.1 -91.9 -3.618
22:44 1010 29.83 839 24.78 -2.2 28 79 -5.5 22.2 -91.9 -3.618
22:45 1010 29.83 839 24.78 -2.3 27.9 79 -5.5 22.1 -91.9 -3.618
22:46 1010 29.83 839 24.78 -2.3 27.8 79 -5.5 22 -91.9 -3.618
22:47 1010 29.83 839 24.78 -2.4 27.7 78 -5.7 21.7 -91.9 -3.618
22:48 1010 29.83 839 24.78 -2.4 27.7 77 -5.8 21.5 -91.9 -3.618
22:49 1010 29.83 839 24.78 -2.4 27.7 78 -5.8 21.6 -91.9 -3.618
22:50 1010 29.83 839 24.78 -2.4 27.7 78 -5.7 21.7 -91.9 -3.618
22:51 1010 29.83 839 24.78 -2.4 27.6 78 -5.7 21.7 -91.9 -3.618
22:52 1010 29.83 839 24.78 -2.4 27.7 78 -5.7 21.7 -91.9 -3.618
22:53 1010 29.83 839 24.78 -2.4 27.6 78 -5.8 21.6 -91.9 -3.618
22:54 1010 29.83 839 24.78 -2.4 27.6 78 -5.8 21.6 -91.9 -3.618
22:55 1010 29.83 839 24.78 -2.5 27.6 77 -5.9 21.4 -91.9 -3.618
22:56 1010 29.83 839 24.78 -2.5 27.6 77 -5.9 21.3 -91.9 -3.618
22:57 1010 29.83 839 24.78 -2.5 27.6 77 -6 21.1 -91.9 -3.618
22:58 1010 29.83 839 24.78 -2.5 27.6 76 -6.2 20.9 -91.9 -3.618
22:59 1010 29.83 839 24.78 -2.5 27.5 76 -6.2 20.9 -91.9 -3.618
23:00 1010 29.83 839 24.78 -2.5 27.6 76 -6.2 20.9 -91.9 -3.618
23:01 1010 29.83 839 24.78 -2.5 27.5 76 -6.2 20.8 -91.9 -3.618
23:02 1010 29.83 839 24.78 -2.5 27.5 74 -6.6 20.2 -91.9 -3.618
23:03 1010 29.83 839 24.78 -2.5 27.5 71 -7 19.5 -91.9 -3.618
23:04 1010 29.83 839 24.78 -2.4 27.6 67 -7.7 18.1 -91.9 -3.618
23:05 1010 29.83 839 24.78 -2.3 27.8 68 -7.5 18.5 -91.9 -3.618
23:06 1010 29.83 839 24.78 -2.3 27.8 69 -7.3 18.8 -91.9 -3.618
23:07 1010 29.83 839 24.78 -2.3 27.9 67 -7.6 18.3 -91.9 -3.618
23:08 1010 29.83 839 24.78 -2.3 27.8 64 -8.3 17.1 -91.9 -3.618
23:09 1010 29.83 839 24.78 -2.3 27.8 63 -8.4 16.9 -91.9 -3.618
23:10 1010 29.83 839 24.78 -2.3 27.8 64 -8.3 17 -92 -3.622
23:11 1010 29.83 839 24.78 -2.3 27.8 63 -8.4 16.9 -92 -3.622
23:12 1010 29.83 839 24.78 -2.3 27.8 61 -8.9 16.1 -92 -3.622
23:13 1010 29.83 839 24.78 -2.3 27.8 63 -8.5 16.7 -92 -3.622
23:14 1010 29.83 839 24.78 -2.4 27.6 62 -8.7 16.4 -92 -3.622
23:15 1010 29.83 839 24.78 -2.5 27.6 63 -8.5 16.7 -92 -3.622
23:16 1010 29.83 839 24.78 -2.5 27.5 63 -8.6 16.5 -92 -3.622
23:17 1010 29.83 839 24.78 -2.5 27.4 62 -8.9 16 -92 -3.622
23:18 1010 29.83 839 24.78 -2.5 27.5 62 -8.8 16.1 -92 -3.622
23:19 1010 29.83 839 24.78 -2.5 27.5 63 -8.6 16.5 -92 -3.622
23:20 1010 29.83 839 24.78 -2.6 27.4 64 -8.5 16.6 -92 -3.622
23:21 1010 29.83 839 24.78 -2.6 27.3 63 -8.7 16.4 -92 -3.622
23:22 1010 29.83 839 24.78 -2.7 27.2 64 -8.5 16.6 -92 -3.622
23:23 1010 29.83 839 24.78 -2.7 27.2 64 -8.6 16.5 -92 -3.622
23:24 1010 29.83 839 24.78 -2.7 27.2 64 -8.6 16.6 -92 -3.622
23:25 1010 29.83 839 24.78 -2.7 27.1 63 -8.8 16.1 -92 -3.622
23:26 1010 29.83 839 24.78 -2.7 27.1 62 -9 15.7 -92 -3.622
23:27 1010 29.83 839 24.78 -2.7 27.2 61 -9.2 15.4 -92.1 -3.626
23:28 1010 29.83 839 24.78 -2.6 27.3 61 -9.2 15.4 -92.1 -3.626
23:29 1010 29.83 839 24.78 -2.6 27.4 61 -9 15.8 -92.1 -3.626
23:30 1010 29.83 839 24.78 -2.6 27.4 61 -9.1 15.6 -92.1 -3.626
23:31 1010 29.83 839 24.78 -2.6 27.4 61 -9.2 15.5 -92.1 -3.626
23:32 1010 29.83 839 24.78 -2.6 27.4 60 -9.3 15.3 -92.1 -3.626
23:33 1010 29.83 839 24.78 -2.6 27.4 60 -9.2 15.4 -92.1 -3.626
23:34 1010 29.83 839 24.78 -2.5 27.5 59 -9.4 15 -92.1 -3.626
23:35 1010 29.83 839 24.78 -2.5 27.5 59 -9.5 14.9 -92.1 -3.626
23:36 1010 29.83 839 24.78 -2.5 27.5 61 -9.1 15.6 -92.1 -3.626
23:37 1010 29.83 839 24.78 -2.5 27.5 61 -9 15.8 -92.1 -3.626
23:38 1010 29.83 839 24.78 -2.5 27.5 59 -9.4 15 -92.1 -3.626
23:39 1010 29.83 839 24.78 -2.5 27.5 62 -8.9 16 -92.1 -3.626
23:40 1010 29.83 839 24.78 -2.5 27.4 61 -9.1 15.6 -92.1 -3.626
23:41 1010 29.83 839 24.78 -2.6 27.4 60 -9.2 15.4 -92.1 -3.626
23:42 1010 29.83 839 24.78 -2.6 27.3 62 -8.9 16 -92.1 -3.626
23:43 1010 29.83 839 24.78 -2.6 27.3 63 -8.7 16.3 -92.1 -3.626
23:44 1010 29.83 839 24.78 -2.7 27.2 63 -8.8 16.2 -92.1 -3.626
23:45 1010 29.83 839 24.78 -2.7 27.1 62 -9.1 15.7 -92.1 -3.626
23:46 1010 29.83 839 24.78 -2.7 27.1 62 -9 15.8 -92.1 -3.626
23:47 1010 29.83 840 24.81 -2.7 27.1 64 -8.6 16.6 -92.1 -3.626
23:48 1010 29.83 840 24.81 -2.7 27.1 64 -8.5 16.7 -92.1 -3.626
23:49 1010 29.83 840 24.81 -2.8 27 64 -8.7 16.4 -92.1 -3.626
23:50 1010 29.83 840 24.81 -2.8 26.9 64 -8.7 16.4 -92.1 -3.626
23:51 1010 29.83 840 24.81 -2.9 26.9 65 -8.6 16.5 -92.1 -3.626
23:52 1010 29.83 840 24.81 -2.9 26.8 65 -8.6 16.5 -92.1 -3.626
23:53 1010 29.83 840 24.81 -2.9 26.7 65 -8.6 16.5 -92.1 -3.626
23:54 1010 29.83 840 24.81 -2.9 26.7 65 -8.6 16.5 -92.1 -3.626
23:55 1010 29.83 840 24.81 -3 26.7 66 -8.5 16.7 -92.1 -3.626
23:56 1010 29.83 840 24.81 -3 26.6 67 -8.3 17 -92.1 -3.626
23:57 1010 29.83 840 24.81 -3 26.6 66 -8.6 16.6 -92.1 -3.626
23:58 1010 29.83 840 24.81 -3 26.5 66 -8.5 16.6 -92.1 -3.626
23:59 1010 29.83 840 24.81 -3 26.5 66 -8.5 16.6 -92.2 -3.63
24:00 1011 29.85 840 24.81 -3.1 26.5 65 -8.7 16.4 -92.2 -3.63